<?xml version="1.0" encoding="UTF-8" standalone="no" ?>
<gpx xmlns="http://www.topografix.com/GPX/1/1" xmlns:xsi="http://www.w3.org/2001/XMLSchema-instance" xsi:schemaLocation="http://www.topografix.com/GPX/1/1 http://www.topografix.com/GPX/1/1/gpx.xsd" version="1.1" creator="VisuGPX - https://www.visugpx.com">
  <metadata>
    <name>Bourg de Sirop,Château Villain...</name>
  </metadata>
  <trk>
    <name><![CDATA[Bourg de Sirop,Château Villain..._1]]></name>
    <trkseg>
      <trkpt lat="46.72838" lon="5.96009">
        <ele>602.2</ele>
        <time>2020-12-06T13:26:11Z</time>
      </trkpt>
      <trkpt lat="46.72822" lon="5.95991">
        <ele>593.9</ele>
        <time>2020-12-06T13:26:27Z</time>
      </trkpt>
      <trkpt lat="46.72807" lon="5.95972">
        <ele>593.5</ele>
        <time>2020-12-06T13:26:32Z</time>
      </trkpt>
      <trkpt lat="46.72822" lon="5.95991">
        <ele>593.3</ele>
        <time>2020-12-06T13:26:40Z</time>
      </trkpt>
      <trkpt lat="46.72837" lon="5.9601">
        <ele>593.3</ele>
        <time>2020-12-06T13:26:45Z</time>
      </trkpt>
      <trkpt lat="46.72836" lon="5.96003">
        <ele>591.3</ele>
        <time>2020-12-06T13:28:36Z</time>
      </trkpt>
      <trkpt lat="46.72832" lon="5.95998">
        <ele>590.4</ele>
        <time>2020-12-06T13:28:47Z</time>
      </trkpt>
      <trkpt lat="46.72827" lon="5.95995">
        <ele>589</ele>
        <time>2020-12-06T13:28:53Z</time>
      </trkpt>
      <trkpt lat="46.72823" lon="5.95991">
        <ele>588.2</ele>
        <time>2020-12-06T13:29:00Z</time>
      </trkpt>
      <trkpt lat="46.72818" lon="5.95988">
        <ele>587.7</ele>
        <time>2020-12-06T13:29:06Z</time>
      </trkpt>
      <trkpt lat="46.72814" lon="5.95986">
        <ele>587.3</ele>
        <time>2020-12-06T13:29:12Z</time>
      </trkpt>
      <trkpt lat="46.72808" lon="5.95984">
        <ele>586.7</ele>
        <time>2020-12-06T13:29:17Z</time>
      </trkpt>
      <trkpt lat="46.72803" lon="5.9598">
        <ele>586.7</ele>
        <time>2020-12-06T13:29:22Z</time>
      </trkpt>
      <trkpt lat="46.72799" lon="5.95977">
        <ele>587.2</ele>
        <time>2020-12-06T13:29:28Z</time>
      </trkpt>
      <trkpt lat="46.72795" lon="5.95972">
        <ele>588.3</ele>
        <time>2020-12-06T13:29:37Z</time>
      </trkpt>
      <trkpt lat="46.72793" lon="5.95967">
        <ele>588.4</ele>
        <time>2020-12-06T13:29:45Z</time>
      </trkpt>
      <trkpt lat="46.72798" lon="5.95966">
        <ele>587.4</ele>
        <time>2020-12-06T13:29:52Z</time>
      </trkpt>
      <trkpt lat="46.72801" lon="5.9596">
        <ele>587.9</ele>
        <time>2020-12-06T13:30:02Z</time>
      </trkpt>
      <trkpt lat="46.728" lon="5.95954">
        <ele>587.9</ele>
        <time>2020-12-06T13:30:10Z</time>
      </trkpt>
      <trkpt lat="46.72799" lon="5.95946">
        <ele>586.1</ele>
        <time>2020-12-06T13:30:19Z</time>
      </trkpt>
      <trkpt lat="46.72796" lon="5.95941">
        <ele>580.6</ele>
        <time>2020-12-06T13:30:59Z</time>
      </trkpt>
      <trkpt lat="46.72798" lon="5.95934">
        <ele>579.6</ele>
        <time>2020-12-06T13:31:06Z</time>
      </trkpt>
      <trkpt lat="46.72801" lon="5.95927">
        <ele>579.1</ele>
        <time>2020-12-06T13:31:12Z</time>
      </trkpt>
      <trkpt lat="46.72803" lon="5.95921">
        <ele>578.8</ele>
        <time>2020-12-06T13:31:20Z</time>
      </trkpt>
      <trkpt lat="46.72804" lon="5.95915">
        <ele>578.4</ele>
        <time>2020-12-06T13:31:25Z</time>
      </trkpt>
      <trkpt lat="46.72806" lon="5.95907">
        <ele>578.5</ele>
        <time>2020-12-06T13:31:30Z</time>
      </trkpt>
      <trkpt lat="46.72808" lon="5.95899">
        <ele>579.1</ele>
        <time>2020-12-06T13:31:35Z</time>
      </trkpt>
      <trkpt lat="46.72811" lon="5.95893">
        <ele>580.2</ele>
        <time>2020-12-06T13:31:40Z</time>
      </trkpt>
      <trkpt lat="46.72814" lon="5.95888">
        <ele>580.8</ele>
        <time>2020-12-06T13:31:48Z</time>
      </trkpt>
      <trkpt lat="46.72816" lon="5.95881">
        <ele>581.2</ele>
        <time>2020-12-06T13:31:53Z</time>
      </trkpt>
      <trkpt lat="46.72818" lon="5.95872">
        <ele>582.1</ele>
        <time>2020-12-06T13:31:58Z</time>
      </trkpt>
      <trkpt lat="46.72821" lon="5.95867">
        <ele>582.1</ele>
        <time>2020-12-06T13:32:04Z</time>
      </trkpt>
      <trkpt lat="46.72822" lon="5.9586">
        <ele>581</ele>
        <time>2020-12-06T13:32:10Z</time>
      </trkpt>
      <trkpt lat="46.72823" lon="5.95853">
        <ele>580.1</ele>
        <time>2020-12-06T13:32:15Z</time>
      </trkpt>
      <trkpt lat="46.72825" lon="5.95847">
        <ele>579.4</ele>
        <time>2020-12-06T13:32:20Z</time>
      </trkpt>
      <trkpt lat="46.72821" lon="5.95843">
        <ele>578.8</ele>
        <time>2020-12-06T13:32:34Z</time>
      </trkpt>
      <trkpt lat="46.72816" lon="5.95843">
        <ele>579.6</ele>
        <time>2020-12-06T13:32:40Z</time>
      </trkpt>
      <trkpt lat="46.72812" lon="5.9584">
        <ele>580.4</ele>
        <time>2020-12-06T13:32:47Z</time>
      </trkpt>
      <trkpt lat="46.72807" lon="5.95838">
        <ele>580.7</ele>
        <time>2020-12-06T13:32:55Z</time>
      </trkpt>
      <trkpt lat="46.72803" lon="5.95834">
        <ele>580.7</ele>
        <time>2020-12-06T13:33:02Z</time>
      </trkpt>
      <trkpt lat="46.72799" lon="5.9583">
        <ele>579.5</ele>
        <time>2020-12-06T13:33:08Z</time>
      </trkpt>
      <trkpt lat="46.72795" lon="5.95826">
        <ele>577.2</ele>
        <time>2020-12-06T13:33:14Z</time>
      </trkpt>
      <trkpt lat="46.72791" lon="5.95822">
        <ele>575.5</ele>
        <time>2020-12-06T13:33:20Z</time>
      </trkpt>
      <trkpt lat="46.72787" lon="5.9582">
        <ele>573.7</ele>
        <time>2020-12-06T13:33:26Z</time>
      </trkpt>
      <trkpt lat="46.72783" lon="5.95815">
        <ele>572.7</ele>
        <time>2020-12-06T13:33:33Z</time>
      </trkpt>
      <trkpt lat="46.72777" lon="5.95811">
        <ele>572.5</ele>
        <time>2020-12-06T13:33:38Z</time>
      </trkpt>
      <trkpt lat="46.72773" lon="5.95806">
        <ele>572.3</ele>
        <time>2020-12-06T13:33:43Z</time>
      </trkpt>
      <trkpt lat="46.72769" lon="5.95803">
        <ele>571.6</ele>
        <time>2020-12-06T13:33:48Z</time>
      </trkpt>
      <trkpt lat="46.72766" lon="5.95797">
        <ele>570.9</ele>
        <time>2020-12-06T13:33:53Z</time>
      </trkpt>
      <trkpt lat="46.72762" lon="5.95792">
        <ele>570.7</ele>
        <time>2020-12-06T13:33:58Z</time>
      </trkpt>
      <trkpt lat="46.72759" lon="5.95788">
        <ele>570.8</ele>
        <time>2020-12-06T13:34:04Z</time>
      </trkpt>
      <trkpt lat="46.72756" lon="5.95782">
        <ele>570.9</ele>
        <time>2020-12-06T13:34:10Z</time>
      </trkpt>
      <trkpt lat="46.72753" lon="5.95776">
        <ele>570.7</ele>
        <time>2020-12-06T13:34:15Z</time>
      </trkpt>
      <trkpt lat="46.72748" lon="5.95772">
        <ele>570.7</ele>
        <time>2020-12-06T13:34:20Z</time>
      </trkpt>
      <trkpt lat="46.72744" lon="5.95769">
        <ele>570.5</ele>
        <time>2020-12-06T13:34:25Z</time>
      </trkpt>
      <trkpt lat="46.7274" lon="5.95765">
        <ele>570.2</ele>
        <time>2020-12-06T13:34:30Z</time>
      </trkpt>
      <trkpt lat="46.72737" lon="5.9576">
        <ele>569.9</ele>
        <time>2020-12-06T13:34:36Z</time>
      </trkpt>
      <trkpt lat="46.72732" lon="5.95759">
        <ele>570.1</ele>
        <time>2020-12-06T13:34:44Z</time>
      </trkpt>
      <trkpt lat="46.72728" lon="5.95755">
        <ele>569.8</ele>
        <time>2020-12-06T13:34:51Z</time>
      </trkpt>
      <trkpt lat="46.72723" lon="5.95752">
        <ele>569.6</ele>
        <time>2020-12-06T13:34:57Z</time>
      </trkpt>
      <trkpt lat="46.72718" lon="5.95749">
        <ele>569.3</ele>
        <time>2020-12-06T13:35:02Z</time>
      </trkpt>
      <trkpt lat="46.72713" lon="5.95746">
        <ele>568.7</ele>
        <time>2020-12-06T13:35:07Z</time>
      </trkpt>
      <trkpt lat="46.72709" lon="5.95742">
        <ele>568</ele>
        <time>2020-12-06T13:35:13Z</time>
      </trkpt>
      <trkpt lat="46.72704" lon="5.95738">
        <ele>567.3</ele>
        <time>2020-12-06T13:35:19Z</time>
      </trkpt>
      <trkpt lat="46.72701" lon="5.95732">
        <ele>566.5</ele>
        <time>2020-12-06T13:35:24Z</time>
      </trkpt>
      <trkpt lat="46.72697" lon="5.95727">
        <ele>566.1</ele>
        <time>2020-12-06T13:35:29Z</time>
      </trkpt>
      <trkpt lat="46.72693" lon="5.95723">
        <ele>565.4</ele>
        <time>2020-12-06T13:35:34Z</time>
      </trkpt>
      <trkpt lat="46.72689" lon="5.95719">
        <ele>564</ele>
        <time>2020-12-06T13:35:41Z</time>
      </trkpt>
      <trkpt lat="46.72685" lon="5.95714">
        <ele>563.5</ele>
        <time>2020-12-06T13:35:48Z</time>
      </trkpt>
      <trkpt lat="46.72682" lon="5.95708">
        <ele>563.6</ele>
        <time>2020-12-06T13:35:55Z</time>
      </trkpt>
      <trkpt lat="46.72679" lon="5.95702">
        <ele>563.5</ele>
        <time>2020-12-06T13:36:02Z</time>
      </trkpt>
      <trkpt lat="46.72675" lon="5.95696">
        <ele>562.5</ele>
        <time>2020-12-06T13:36:07Z</time>
      </trkpt>
      <trkpt lat="46.72672" lon="5.95691">
        <ele>559.6</ele>
        <time>2020-12-06T13:36:14Z</time>
      </trkpt>
      <trkpt lat="46.72667" lon="5.95689">
        <ele>556.2</ele>
        <time>2020-12-06T13:36:23Z</time>
      </trkpt>
      <trkpt lat="46.72663" lon="5.95686">
        <ele>555.1</ele>
        <time>2020-12-06T13:36:28Z</time>
      </trkpt>
      <trkpt lat="46.7266" lon="5.9568">
        <ele>554.9</ele>
        <time>2020-12-06T13:36:33Z</time>
      </trkpt>
      <trkpt lat="46.72657" lon="5.95675">
        <ele>554.7</ele>
        <time>2020-12-06T13:36:39Z</time>
      </trkpt>
      <trkpt lat="46.72653" lon="5.9567">
        <ele>554.9</ele>
        <time>2020-12-06T13:36:45Z</time>
      </trkpt>
      <trkpt lat="46.72649" lon="5.95666">
        <ele>555.3</ele>
        <time>2020-12-06T13:36:52Z</time>
      </trkpt>
      <trkpt lat="46.72645" lon="5.95664">
        <ele>555.7</ele>
        <time>2020-12-06T13:36:58Z</time>
      </trkpt>
      <trkpt lat="46.7264" lon="5.95661">
        <ele>555.8</ele>
        <time>2020-12-06T13:37:04Z</time>
      </trkpt>
      <trkpt lat="46.72636" lon="5.95658">
        <ele>555.4</ele>
        <time>2020-12-06T13:37:10Z</time>
      </trkpt>
      <trkpt lat="46.72634" lon="5.95651">
        <ele>554.5</ele>
        <time>2020-12-06T13:37:19Z</time>
      </trkpt>
      <trkpt lat="46.72629" lon="5.95651">
        <ele>556.7</ele>
        <time>2020-12-06T13:37:35Z</time>
      </trkpt>
      <trkpt lat="46.72624" lon="5.95653">
        <ele>557.4</ele>
        <time>2020-12-06T13:37:42Z</time>
      </trkpt>
      <trkpt lat="46.72615" lon="5.95662">
        <ele>563.9</ele>
        <time>2020-12-06T13:37:47Z</time>
      </trkpt>
      <trkpt lat="46.72608" lon="5.95665">
        <ele>570.1</ele>
        <time>2020-12-06T13:37:52Z</time>
      </trkpt>
      <trkpt lat="46.72603" lon="5.95664">
        <ele>573.7</ele>
        <time>2020-12-06T13:37:57Z</time>
      </trkpt>
      <trkpt lat="46.72598" lon="5.95664">
        <ele>576.1</ele>
        <time>2020-12-06T13:38:04Z</time>
      </trkpt>
      <trkpt lat="46.72594" lon="5.95661">
        <ele>576.6</ele>
        <time>2020-12-06T13:38:09Z</time>
      </trkpt>
      <trkpt lat="46.72588" lon="5.95659">
        <ele>576.5</ele>
        <time>2020-12-06T13:38:14Z</time>
      </trkpt>
      <trkpt lat="46.72584" lon="5.95656">
        <ele>575.7</ele>
        <time>2020-12-06T13:38:22Z</time>
      </trkpt>
      <trkpt lat="46.72578" lon="5.95657">
        <ele>575.3</ele>
        <time>2020-12-06T13:38:27Z</time>
      </trkpt>
      <trkpt lat="46.72573" lon="5.95656">
        <ele>573.3</ele>
        <time>2020-12-06T13:38:34Z</time>
      </trkpt>
      <trkpt lat="46.72566" lon="5.95658">
        <ele>571.3</ele>
        <time>2020-12-06T13:38:39Z</time>
      </trkpt>
      <trkpt lat="46.7256" lon="5.95662">
        <ele>569</ele>
        <time>2020-12-06T13:38:44Z</time>
      </trkpt>
      <trkpt lat="46.72556" lon="5.95667">
        <ele>566.3</ele>
        <time>2020-12-06T13:38:50Z</time>
      </trkpt>
      <trkpt lat="46.72553" lon="5.95673">
        <ele>563.4</ele>
        <time>2020-12-06T13:38:57Z</time>
      </trkpt>
      <trkpt lat="46.72549" lon="5.95677">
        <ele>560.8</ele>
        <time>2020-12-06T13:39:04Z</time>
      </trkpt>
      <trkpt lat="46.72545" lon="5.95681">
        <ele>558.3</ele>
        <time>2020-12-06T13:39:11Z</time>
      </trkpt>
      <trkpt lat="46.72541" lon="5.95687">
        <ele>556.7</ele>
        <time>2020-12-06T13:39:16Z</time>
      </trkpt>
      <trkpt lat="46.72537" lon="5.95691">
        <ele>554.5</ele>
        <time>2020-12-06T13:39:22Z</time>
      </trkpt>
      <trkpt lat="46.72534" lon="5.95696">
        <ele>551.5</ele>
        <time>2020-12-06T13:39:31Z</time>
      </trkpt>
      <trkpt lat="46.72531" lon="5.95702">
        <ele>549.5</ele>
        <time>2020-12-06T13:39:40Z</time>
      </trkpt>
      <trkpt lat="46.72526" lon="5.95703">
        <ele>548.2</ele>
        <time>2020-12-06T13:39:46Z</time>
      </trkpt>
      <trkpt lat="46.72521" lon="5.95701">
        <ele>547.7</ele>
        <time>2020-12-06T13:39:51Z</time>
      </trkpt>
      <trkpt lat="46.72517" lon="5.95698">
        <ele>547.5</ele>
        <time>2020-12-06T13:40:01Z</time>
      </trkpt>
      <trkpt lat="46.72511" lon="5.95694">
        <ele>546.7</ele>
        <time>2020-12-06T13:40:06Z</time>
      </trkpt>
      <trkpt lat="46.72504" lon="5.95689">
        <ele>545.8</ele>
        <time>2020-12-06T13:40:11Z</time>
      </trkpt>
      <trkpt lat="46.72501" lon="5.95684">
        <ele>545.3</ele>
        <time>2020-12-06T13:40:16Z</time>
      </trkpt>
      <trkpt lat="46.72498" lon="5.95678">
        <ele>544.9</ele>
        <time>2020-12-06T13:40:21Z</time>
      </trkpt>
      <trkpt lat="46.72495" lon="5.95673">
        <ele>543.8</ele>
        <time>2020-12-06T13:40:27Z</time>
      </trkpt>
      <trkpt lat="46.72493" lon="5.95666">
        <ele>542.5</ele>
        <time>2020-12-06T13:40:34Z</time>
      </trkpt>
      <trkpt lat="46.72491" lon="5.9566">
        <ele>541.2</ele>
        <time>2020-12-06T13:40:41Z</time>
      </trkpt>
      <trkpt lat="46.72488" lon="5.95653">
        <ele>539.9</ele>
        <time>2020-12-06T13:40:48Z</time>
      </trkpt>
      <trkpt lat="46.72486" lon="5.95647">
        <ele>539</ele>
        <time>2020-12-06T13:40:53Z</time>
      </trkpt>
      <trkpt lat="46.72482" lon="5.95642">
        <ele>537.9</ele>
        <time>2020-12-06T13:40:58Z</time>
      </trkpt>
      <trkpt lat="46.72479" lon="5.95636">
        <ele>537.1</ele>
        <time>2020-12-06T13:41:03Z</time>
      </trkpt>
      <trkpt lat="46.72476" lon="5.95631">
        <ele>536.7</ele>
        <time>2020-12-06T13:41:08Z</time>
      </trkpt>
      <trkpt lat="46.72472" lon="5.95626">
        <ele>536.4</ele>
        <time>2020-12-06T13:41:13Z</time>
      </trkpt>
      <trkpt lat="46.7247" lon="5.9562">
        <ele>536.1</ele>
        <time>2020-12-06T13:41:19Z</time>
      </trkpt>
      <trkpt lat="46.72466" lon="5.95615">
        <ele>536</ele>
        <time>2020-12-06T13:41:26Z</time>
      </trkpt>
      <trkpt lat="46.72462" lon="5.95614">
        <ele>536</ele>
        <time>2020-12-06T13:41:31Z</time>
      </trkpt>
      <trkpt lat="46.72457" lon="5.95613">
        <ele>536</ele>
        <time>2020-12-06T13:41:36Z</time>
      </trkpt>
      <trkpt lat="46.72452" lon="5.95613">
        <ele>536.2</ele>
        <time>2020-12-06T13:41:43Z</time>
      </trkpt>
      <trkpt lat="46.72448" lon="5.95616">
        <ele>536.4</ele>
        <time>2020-12-06T13:41:50Z</time>
      </trkpt>
      <trkpt lat="46.72446" lon="5.95622">
        <ele>535.6</ele>
        <time>2020-12-06T13:41:57Z</time>
      </trkpt>
      <trkpt lat="46.72442" lon="5.95629">
        <ele>534.6</ele>
        <time>2020-12-06T13:42:02Z</time>
      </trkpt>
      <trkpt lat="46.72438" lon="5.95635">
        <ele>533.7</ele>
        <time>2020-12-06T13:42:07Z</time>
      </trkpt>
      <trkpt lat="46.72435" lon="5.95642">
        <ele>532.9</ele>
        <time>2020-12-06T13:42:12Z</time>
      </trkpt>
      <trkpt lat="46.72432" lon="5.95649">
        <ele>531.8</ele>
        <time>2020-12-06T13:42:18Z</time>
      </trkpt>
      <trkpt lat="46.72429" lon="5.95653">
        <ele>530.9</ele>
        <time>2020-12-06T13:42:24Z</time>
      </trkpt>
      <trkpt lat="46.72427" lon="5.95659">
        <ele>529.7</ele>
        <time>2020-12-06T13:42:31Z</time>
      </trkpt>
      <trkpt lat="46.72423" lon="5.95664">
        <ele>528.9</ele>
        <time>2020-12-06T13:42:39Z</time>
      </trkpt>
      <trkpt lat="46.72418" lon="5.95665">
        <ele>528.7</ele>
        <time>2020-12-06T13:42:47Z</time>
      </trkpt>
      <trkpt lat="46.72413" lon="5.95668">
        <ele>528.8</ele>
        <time>2020-12-06T13:42:53Z</time>
      </trkpt>
      <trkpt lat="46.72409" lon="5.95671">
        <ele>529</ele>
        <time>2020-12-06T13:42:59Z</time>
      </trkpt>
      <trkpt lat="46.72404" lon="5.95673">
        <ele>529.1</ele>
        <time>2020-12-06T13:43:04Z</time>
      </trkpt>
      <trkpt lat="46.724" lon="5.95674">
        <ele>529.1</ele>
        <time>2020-12-06T13:43:09Z</time>
      </trkpt>
      <trkpt lat="46.72395" lon="5.95672">
        <ele>528.9</ele>
        <time>2020-12-06T13:43:15Z</time>
      </trkpt>
      <trkpt lat="46.7239" lon="5.95673">
        <ele>528.7</ele>
        <time>2020-12-06T13:43:20Z</time>
      </trkpt>
      <trkpt lat="46.72385" lon="5.95672">
        <ele>528.9</ele>
        <time>2020-12-06T13:43:25Z</time>
      </trkpt>
      <trkpt lat="46.7238" lon="5.95671">
        <ele>528.9</ele>
        <time>2020-12-06T13:43:30Z</time>
      </trkpt>
      <trkpt lat="46.72375" lon="5.95673">
        <ele>529</ele>
        <time>2020-12-06T13:43:35Z</time>
      </trkpt>
      <trkpt lat="46.7237" lon="5.95672">
        <ele>529</ele>
        <time>2020-12-06T13:43:41Z</time>
      </trkpt>
      <trkpt lat="46.72365" lon="5.95672">
        <ele>528.8</ele>
        <time>2020-12-06T13:43:48Z</time>
      </trkpt>
      <trkpt lat="46.72361" lon="5.95673">
        <ele>523.7</ele>
        <time>2020-12-06T13:43:59Z</time>
      </trkpt>
      <trkpt lat="46.72356" lon="5.95667">
        <ele>523.2</ele>
        <time>2020-12-06T13:44:07Z</time>
      </trkpt>
      <trkpt lat="46.72353" lon="5.95656">
        <ele>524.8</ele>
        <time>2020-12-06T13:44:12Z</time>
      </trkpt>
      <trkpt lat="46.72351" lon="5.95645">
        <ele>526.8</ele>
        <time>2020-12-06T13:44:17Z</time>
      </trkpt>
      <trkpt lat="46.72349" lon="5.95637">
        <ele>529.2</ele>
        <time>2020-12-06T13:44:22Z</time>
      </trkpt>
      <trkpt lat="46.72346" lon="5.95631">
        <ele>531.5</ele>
        <time>2020-12-06T13:44:28Z</time>
      </trkpt>
      <trkpt lat="46.72342" lon="5.95626">
        <ele>533.2</ele>
        <time>2020-12-06T13:44:34Z</time>
      </trkpt>
      <trkpt lat="46.72338" lon="5.95621">
        <ele>534.4</ele>
        <time>2020-12-06T13:44:40Z</time>
      </trkpt>
      <trkpt lat="46.72334" lon="5.95617">
        <ele>535.9</ele>
        <time>2020-12-06T13:44:47Z</time>
      </trkpt>
      <trkpt lat="46.72332" lon="5.95611">
        <ele>537.2</ele>
        <time>2020-12-06T13:44:53Z</time>
      </trkpt>
      <trkpt lat="46.72328" lon="5.95608">
        <ele>538.9</ele>
        <time>2020-12-06T13:45:04Z</time>
      </trkpt>
      <trkpt lat="46.72323" lon="5.95606">
        <ele>539.9</ele>
        <time>2020-12-06T13:45:11Z</time>
      </trkpt>
      <trkpt lat="46.72319" lon="5.95605">
        <ele>540.8</ele>
        <time>2020-12-06T13:45:17Z</time>
      </trkpt>
      <trkpt lat="46.72315" lon="5.956">
        <ele>541.6</ele>
        <time>2020-12-06T13:45:23Z</time>
      </trkpt>
      <trkpt lat="46.72311" lon="5.95596">
        <ele>542.2</ele>
        <time>2020-12-06T13:45:29Z</time>
      </trkpt>
      <trkpt lat="46.72306" lon="5.95593">
        <ele>542.4</ele>
        <time>2020-12-06T13:45:34Z</time>
      </trkpt>
      <trkpt lat="46.72302" lon="5.9559">
        <ele>542.6</ele>
        <time>2020-12-06T13:45:39Z</time>
      </trkpt>
      <trkpt lat="46.72299" lon="5.95585">
        <ele>543.1</ele>
        <time>2020-12-06T13:45:45Z</time>
      </trkpt>
      <trkpt lat="46.72294" lon="5.95581">
        <ele>543.4</ele>
        <time>2020-12-06T13:45:51Z</time>
      </trkpt>
      <trkpt lat="46.7229" lon="5.95577">
        <ele>543.5</ele>
        <time>2020-12-06T13:45:57Z</time>
      </trkpt>
      <trkpt lat="46.72286" lon="5.95573">
        <ele>543.8</ele>
        <time>2020-12-06T13:46:03Z</time>
      </trkpt>
      <trkpt lat="46.72281" lon="5.95571">
        <ele>544.2</ele>
        <time>2020-12-06T13:46:10Z</time>
      </trkpt>
      <trkpt lat="46.72282" lon="5.95578">
        <ele>544.5</ele>
        <time>2020-12-06T13:46:20Z</time>
      </trkpt>
      <trkpt lat="46.72284" lon="5.95585">
        <ele>544.3</ele>
        <time>2020-12-06T13:46:26Z</time>
      </trkpt>
      <trkpt lat="46.72288" lon="5.95591">
        <ele>544</ele>
        <time>2020-12-06T13:46:31Z</time>
      </trkpt>
      <trkpt lat="46.7229" lon="5.95598">
        <ele>543.6</ele>
        <time>2020-12-06T13:46:37Z</time>
      </trkpt>
      <trkpt lat="46.72293" lon="5.95603">
        <ele>543.1</ele>
        <time>2020-12-06T13:46:43Z</time>
      </trkpt>
      <trkpt lat="46.72295" lon="5.95609">
        <ele>543</ele>
        <time>2020-12-06T13:46:51Z</time>
      </trkpt>
      <trkpt lat="46.72296" lon="5.95617">
        <ele>543.3</ele>
        <time>2020-12-06T13:46:59Z</time>
      </trkpt>
      <trkpt lat="46.72296" lon="5.95624">
        <ele>543.7</ele>
        <time>2020-12-06T13:47:04Z</time>
      </trkpt>
      <trkpt lat="46.72298" lon="5.9563">
        <ele>544.3</ele>
        <time>2020-12-06T13:47:11Z</time>
      </trkpt>
      <trkpt lat="46.723" lon="5.95636">
        <ele>545.2</ele>
        <time>2020-12-06T13:47:19Z</time>
      </trkpt>
      <trkpt lat="46.72304" lon="5.9564">
        <ele>546.1</ele>
        <time>2020-12-06T13:47:27Z</time>
      </trkpt>
      <trkpt lat="46.72308" lon="5.95645">
        <ele>546.7</ele>
        <time>2020-12-06T13:47:34Z</time>
      </trkpt>
      <trkpt lat="46.72312" lon="5.95649">
        <ele>547.1</ele>
        <time>2020-12-06T13:47:40Z</time>
      </trkpt>
      <trkpt lat="46.72315" lon="5.95654">
        <ele>547.3</ele>
        <time>2020-12-06T13:47:46Z</time>
      </trkpt>
      <trkpt lat="46.72317" lon="5.95661">
        <ele>547.5</ele>
        <time>2020-12-06T13:47:52Z</time>
      </trkpt>
      <trkpt lat="46.72316" lon="5.95667">
        <ele>547.5</ele>
        <time>2020-12-06T13:47:57Z</time>
      </trkpt>
      <trkpt lat="46.72317" lon="5.95675">
        <ele>547.7</ele>
        <time>2020-12-06T13:48:02Z</time>
      </trkpt>
      <trkpt lat="46.72317" lon="5.95683">
        <ele>547.9</ele>
        <time>2020-12-06T13:48:07Z</time>
      </trkpt>
      <trkpt lat="46.72316" lon="5.95689">
        <ele>548.1</ele>
        <time>2020-12-06T13:48:13Z</time>
      </trkpt>
      <trkpt lat="46.72315" lon="5.95696">
        <ele>547</ele>
        <time>2020-12-06T13:48:22Z</time>
      </trkpt>
      <trkpt lat="46.72313" lon="5.95703">
        <ele>544.4</ele>
        <time>2020-12-06T13:48:31Z</time>
      </trkpt>
      <trkpt lat="46.72316" lon="5.95708">
        <ele>543.3</ele>
        <time>2020-12-06T13:48:36Z</time>
      </trkpt>
      <trkpt lat="46.72321" lon="5.95712">
        <ele>543.3</ele>
        <time>2020-12-06T13:48:41Z</time>
      </trkpt>
      <trkpt lat="46.72329" lon="5.95715">
        <ele>543.8</ele>
        <time>2020-12-06T13:48:46Z</time>
      </trkpt>
      <trkpt lat="46.72336" lon="5.95719">
        <ele>544.5</ele>
        <time>2020-12-06T13:48:51Z</time>
      </trkpt>
      <trkpt lat="46.72341" lon="5.95722">
        <ele>545</ele>
        <time>2020-12-06T13:48:56Z</time>
      </trkpt>
      <trkpt lat="46.72346" lon="5.95724">
        <ele>545.1</ele>
        <time>2020-12-06T13:49:02Z</time>
      </trkpt>
      <trkpt lat="46.7235" lon="5.95729">
        <ele>545.3</ele>
        <time>2020-12-06T13:49:08Z</time>
      </trkpt>
      <trkpt lat="46.72354" lon="5.95733">
        <ele>545.2</ele>
        <time>2020-12-06T13:49:13Z</time>
      </trkpt>
      <trkpt lat="46.72358" lon="5.95738">
        <ele>545.3</ele>
        <time>2020-12-06T13:49:18Z</time>
      </trkpt>
      <trkpt lat="46.72362" lon="5.95744">
        <ele>545.4</ele>
        <time>2020-12-06T13:49:23Z</time>
      </trkpt>
      <trkpt lat="46.72365" lon="5.9575">
        <ele>545.8</ele>
        <time>2020-12-06T13:49:28Z</time>
      </trkpt>
      <trkpt lat="46.72368" lon="5.95755">
        <ele>546.7</ele>
        <time>2020-12-06T13:49:34Z</time>
      </trkpt>
      <trkpt lat="46.72372" lon="5.95759">
        <ele>547.8</ele>
        <time>2020-12-06T13:49:39Z</time>
      </trkpt>
      <trkpt lat="46.72376" lon="5.95764">
        <ele>549.6</ele>
        <time>2020-12-06T13:49:46Z</time>
      </trkpt>
      <trkpt lat="46.72379" lon="5.95769">
        <ele>551.2</ele>
        <time>2020-12-06T13:49:52Z</time>
      </trkpt>
      <trkpt lat="46.72382" lon="5.95774">
        <ele>552.5</ele>
        <time>2020-12-06T13:49:58Z</time>
      </trkpt>
      <trkpt lat="46.72385" lon="5.9578">
        <ele>553.8</ele>
        <time>2020-12-06T13:50:04Z</time>
      </trkpt>
      <trkpt lat="46.7239" lon="5.95782">
        <ele>555.5</ele>
        <time>2020-12-06T13:50:15Z</time>
      </trkpt>
      <trkpt lat="46.72393" lon="5.95787">
        <ele>556.4</ele>
        <time>2020-12-06T13:50:22Z</time>
      </trkpt>
      <trkpt lat="46.72396" lon="5.95793">
        <ele>557.4</ele>
        <time>2020-12-06T13:50:30Z</time>
      </trkpt>
      <trkpt lat="46.72398" lon="5.95799">
        <ele>558.3</ele>
        <time>2020-12-06T13:50:35Z</time>
      </trkpt>
      <trkpt lat="46.724" lon="5.95806">
        <ele>559.6</ele>
        <time>2020-12-06T13:50:41Z</time>
      </trkpt>
      <trkpt lat="46.72404" lon="5.95811">
        <ele>560.5</ele>
        <time>2020-12-06T13:50:46Z</time>
      </trkpt>
      <trkpt lat="46.72407" lon="5.95816">
        <ele>561.1</ele>
        <time>2020-12-06T13:50:51Z</time>
      </trkpt>
      <trkpt lat="46.7241" lon="5.95822">
        <ele>561.8</ele>
        <time>2020-12-06T13:50:58Z</time>
      </trkpt>
      <trkpt lat="46.72414" lon="5.95827">
        <ele>562.3</ele>
        <time>2020-12-06T13:51:04Z</time>
      </trkpt>
      <trkpt lat="46.72417" lon="5.95833">
        <ele>562.4</ele>
        <time>2020-12-06T13:51:10Z</time>
      </trkpt>
      <trkpt lat="46.7242" lon="5.95839">
        <ele>563.1</ele>
        <time>2020-12-06T13:51:17Z</time>
      </trkpt>
      <trkpt lat="46.72421" lon="5.95846">
        <ele>564.2</ele>
        <time>2020-12-06T13:51:23Z</time>
      </trkpt>
      <trkpt lat="46.72422" lon="5.95853">
        <ele>565.6</ele>
        <time>2020-12-06T13:51:29Z</time>
      </trkpt>
      <trkpt lat="46.72425" lon="5.9586">
        <ele>567.1</ele>
        <time>2020-12-06T13:51:35Z</time>
      </trkpt>
      <trkpt lat="46.72425" lon="5.95867">
        <ele>568.6</ele>
        <time>2020-12-06T13:51:41Z</time>
      </trkpt>
      <trkpt lat="46.72425" lon="5.95874">
        <ele>570.3</ele>
        <time>2020-12-06T13:51:48Z</time>
      </trkpt>
      <trkpt lat="46.72424" lon="5.95881">
        <ele>569.6</ele>
        <time>2020-12-06T13:51:59Z</time>
      </trkpt>
      <trkpt lat="46.72419" lon="5.95885">
        <ele>568.2</ele>
        <time>2020-12-06T13:52:05Z</time>
      </trkpt>
      <trkpt lat="46.72416" lon="5.9589">
        <ele>565.9</ele>
        <time>2020-12-06T13:52:11Z</time>
      </trkpt>
      <trkpt lat="46.72415" lon="5.95897">
        <ele>564</ele>
        <time>2020-12-06T13:52:17Z</time>
      </trkpt>
      <trkpt lat="46.7241" lon="5.95902">
        <ele>562.8</ele>
        <time>2020-12-06T13:52:22Z</time>
      </trkpt>
      <trkpt lat="46.72408" lon="5.95908">
        <ele>562.7</ele>
        <time>2020-12-06T13:52:33Z</time>
      </trkpt>
      <trkpt lat="46.72407" lon="5.95914">
        <ele>563.3</ele>
        <time>2020-12-06T13:52:40Z</time>
      </trkpt>
      <trkpt lat="46.72406" lon="5.95921">
        <ele>564.8</ele>
        <time>2020-12-06T13:52:46Z</time>
      </trkpt>
      <trkpt lat="46.72405" lon="5.95928">
        <ele>565.8</ele>
        <time>2020-12-06T13:52:54Z</time>
      </trkpt>
      <trkpt lat="46.72401" lon="5.95933">
        <ele>566.5</ele>
        <time>2020-12-06T13:53:01Z</time>
      </trkpt>
      <trkpt lat="46.72397" lon="5.95934">
        <ele>567.8</ele>
        <time>2020-12-06T13:53:47Z</time>
      </trkpt>
      <trkpt lat="46.72401" lon="5.95938">
        <ele>569.2</ele>
        <time>2020-12-06T13:53:53Z</time>
      </trkpt>
      <trkpt lat="46.72397" lon="5.95943">
        <ele>572</ele>
        <time>2020-12-06T13:54:11Z</time>
      </trkpt>
      <trkpt lat="46.72396" lon="5.9595">
        <ele>573.4</ele>
        <time>2020-12-06T13:54:16Z</time>
      </trkpt>
      <trkpt lat="46.72393" lon="5.95956">
        <ele>573.5</ele>
        <time>2020-12-06T13:54:22Z</time>
      </trkpt>
      <trkpt lat="46.72389" lon="5.95961">
        <ele>572.5</ele>
        <time>2020-12-06T13:54:27Z</time>
      </trkpt>
      <trkpt lat="46.72385" lon="5.95967">
        <ele>571</ele>
        <time>2020-12-06T13:54:32Z</time>
      </trkpt>
      <trkpt lat="46.72381" lon="5.95974">
        <ele>569.6</ele>
        <time>2020-12-06T13:54:37Z</time>
      </trkpt>
      <trkpt lat="46.72377" lon="5.9598">
        <ele>568.5</ele>
        <time>2020-12-06T13:54:42Z</time>
      </trkpt>
      <trkpt lat="46.72372" lon="5.95983">
        <ele>567.6</ele>
        <time>2020-12-06T13:54:48Z</time>
      </trkpt>
      <trkpt lat="46.72369" lon="5.95989">
        <ele>567.3</ele>
        <time>2020-12-06T13:54:54Z</time>
      </trkpt>
      <trkpt lat="46.72365" lon="5.95994">
        <ele>566.7</ele>
        <time>2020-12-06T13:55:00Z</time>
      </trkpt>
      <trkpt lat="46.72361" lon="5.96001">
        <ele>566.4</ele>
        <time>2020-12-06T13:55:05Z</time>
      </trkpt>
      <trkpt lat="46.72358" lon="5.96006">
        <ele>566.5</ele>
        <time>2020-12-06T13:55:10Z</time>
      </trkpt>
      <trkpt lat="46.72353" lon="5.9601">
        <ele>565.3</ele>
        <time>2020-12-06T13:55:15Z</time>
      </trkpt>
      <trkpt lat="46.72348" lon="5.96012">
        <ele>563.1</ele>
        <time>2020-12-06T13:55:20Z</time>
      </trkpt>
      <trkpt lat="46.72343" lon="5.96016">
        <ele>562</ele>
        <time>2020-12-06T13:55:25Z</time>
      </trkpt>
      <trkpt lat="46.72338" lon="5.96024">
        <ele>563.3</ele>
        <time>2020-12-06T13:55:30Z</time>
      </trkpt>
      <trkpt lat="46.72333" lon="5.9603">
        <ele>563.6</ele>
        <time>2020-12-06T13:55:35Z</time>
      </trkpt>
      <trkpt lat="46.72329" lon="5.9603">
        <ele>563.4</ele>
        <time>2020-12-06T13:55:41Z</time>
      </trkpt>
      <trkpt lat="46.72324" lon="5.96029">
        <ele>561.9</ele>
        <time>2020-12-06T13:55:50Z</time>
      </trkpt>
      <trkpt lat="46.72319" lon="5.96029">
        <ele>561.4</ele>
        <time>2020-12-06T13:55:56Z</time>
      </trkpt>
      <trkpt lat="46.72314" lon="5.96027">
        <ele>561.6</ele>
        <time>2020-12-06T13:56:01Z</time>
      </trkpt>
      <trkpt lat="46.7231" lon="5.96025">
        <ele>562.3</ele>
        <time>2020-12-06T13:56:06Z</time>
      </trkpt>
      <trkpt lat="46.72304" lon="5.96023">
        <ele>563.1</ele>
        <time>2020-12-06T13:56:11Z</time>
      </trkpt>
      <trkpt lat="46.72298" lon="5.96027">
        <ele>564.5</ele>
        <time>2020-12-06T13:56:16Z</time>
      </trkpt>
      <trkpt lat="46.72292" lon="5.96027">
        <ele>566.4</ele>
        <time>2020-12-06T13:56:21Z</time>
      </trkpt>
      <trkpt lat="46.72286" lon="5.96026">
        <ele>568.6</ele>
        <time>2020-12-06T13:56:26Z</time>
      </trkpt>
      <trkpt lat="46.72282" lon="5.96025">
        <ele>570.4</ele>
        <time>2020-12-06T13:56:31Z</time>
      </trkpt>
      <trkpt lat="46.72277" lon="5.96024">
        <ele>572.2</ele>
        <time>2020-12-06T13:56:36Z</time>
      </trkpt>
      <trkpt lat="46.72272" lon="5.96023">
        <ele>574.1</ele>
        <time>2020-12-06T13:56:41Z</time>
      </trkpt>
      <trkpt lat="46.72267" lon="5.96024">
        <ele>576</ele>
        <time>2020-12-06T13:56:46Z</time>
      </trkpt>
      <trkpt lat="46.72261" lon="5.96026">
        <ele>577.9</ele>
        <time>2020-12-06T13:56:51Z</time>
      </trkpt>
      <trkpt lat="46.72255" lon="5.96029">
        <ele>580.6</ele>
        <time>2020-12-06T13:56:56Z</time>
      </trkpt>
      <trkpt lat="46.72249" lon="5.96033">
        <ele>583.2</ele>
        <time>2020-12-06T13:57:01Z</time>
      </trkpt>
      <trkpt lat="46.72243" lon="5.96035">
        <ele>585.5</ele>
        <time>2020-12-06T13:57:06Z</time>
      </trkpt>
      <trkpt lat="46.72239" lon="5.9604">
        <ele>587.8</ele>
        <time>2020-12-06T13:57:11Z</time>
      </trkpt>
      <trkpt lat="46.72237" lon="5.96046">
        <ele>589.6</ele>
        <time>2020-12-06T13:57:17Z</time>
      </trkpt>
      <trkpt lat="46.72233" lon="5.96052">
        <ele>591.1</ele>
        <time>2020-12-06T13:57:23Z</time>
      </trkpt>
      <trkpt lat="46.72231" lon="5.96057">
        <ele>592.5</ele>
        <time>2020-12-06T13:57:28Z</time>
      </trkpt>
      <trkpt lat="46.72231" lon="5.96064">
        <ele>594.3</ele>
        <time>2020-12-06T13:57:34Z</time>
      </trkpt>
      <trkpt lat="46.72237" lon="5.96069">
        <ele>595.9</ele>
        <time>2020-12-06T13:57:39Z</time>
      </trkpt>
      <trkpt lat="46.72245" lon="5.96074">
        <ele>598.1</ele>
        <time>2020-12-06T13:57:44Z</time>
      </trkpt>
      <trkpt lat="46.72251" lon="5.96077">
        <ele>600</ele>
        <time>2020-12-06T13:57:49Z</time>
      </trkpt>
      <trkpt lat="46.72256" lon="5.96079">
        <ele>600.2</ele>
        <time>2020-12-06T13:57:54Z</time>
      </trkpt>
      <trkpt lat="46.72261" lon="5.96081">
        <ele>600.2</ele>
        <time>2020-12-06T13:58:00Z</time>
      </trkpt>
      <trkpt lat="46.72266" lon="5.96083">
        <ele>600.2</ele>
        <time>2020-12-06T13:58:05Z</time>
      </trkpt>
      <trkpt lat="46.72271" lon="5.96086">
        <ele>600.4</ele>
        <time>2020-12-06T13:58:10Z</time>
      </trkpt>
      <trkpt lat="46.72276" lon="5.96089">
        <ele>600.4</ele>
        <time>2020-12-06T13:58:15Z</time>
      </trkpt>
      <trkpt lat="46.7228" lon="5.96093">
        <ele>599.4</ele>
        <time>2020-12-06T13:58:20Z</time>
      </trkpt>
      <trkpt lat="46.72283" lon="5.96099">
        <ele>593.7</ele>
        <time>2020-12-06T13:58:26Z</time>
      </trkpt>
      <trkpt lat="46.72286" lon="5.96105">
        <ele>586.1</ele>
        <time>2020-12-06T13:58:33Z</time>
      </trkpt>
      <trkpt lat="46.72288" lon="5.96111">
        <ele>580.8</ele>
        <time>2020-12-06T13:58:38Z</time>
      </trkpt>
      <trkpt lat="46.72288" lon="5.96118">
        <ele>576.3</ele>
        <time>2020-12-06T13:58:44Z</time>
      </trkpt>
      <trkpt lat="46.72288" lon="5.96125">
        <ele>573</ele>
        <time>2020-12-06T13:58:50Z</time>
      </trkpt>
      <trkpt lat="46.72288" lon="5.96133">
        <ele>570.9</ele>
        <time>2020-12-06T13:58:56Z</time>
      </trkpt>
      <trkpt lat="46.72287" lon="5.9614">
        <ele>569.3</ele>
        <time>2020-12-06T13:59:01Z</time>
      </trkpt>
      <trkpt lat="46.7229" lon="5.96145">
        <ele>570.4</ele>
        <time>2020-12-06T13:59:20Z</time>
      </trkpt>
      <trkpt lat="46.72293" lon="5.9615">
        <ele>573.3</ele>
        <time>2020-12-06T13:59:28Z</time>
      </trkpt>
      <trkpt lat="46.72297" lon="5.96154">
        <ele>578</ele>
        <time>2020-12-06T14:00:08Z</time>
      </trkpt>
      <trkpt lat="46.72298" lon="5.96161">
        <ele>580.9</ele>
        <time>2020-12-06T14:00:19Z</time>
      </trkpt>
      <trkpt lat="46.72295" lon="5.96167">
        <ele>583.9</ele>
        <time>2020-12-06T14:00:31Z</time>
      </trkpt>
      <trkpt lat="46.72292" lon="5.96173">
        <ele>584.9</ele>
        <time>2020-12-06T14:00:40Z</time>
      </trkpt>
      <trkpt lat="46.7229" lon="5.96179">
        <ele>585.4</ele>
        <time>2020-12-06T14:00:45Z</time>
      </trkpt>
      <trkpt lat="46.72287" lon="5.96187">
        <ele>585.7</ele>
        <time>2020-12-06T14:00:50Z</time>
      </trkpt>
      <trkpt lat="46.72285" lon="5.96193">
        <ele>586</ele>
        <time>2020-12-06T14:00:55Z</time>
      </trkpt>
      <trkpt lat="46.72283" lon="5.962">
        <ele>586.3</ele>
        <time>2020-12-06T14:01:01Z</time>
      </trkpt>
      <trkpt lat="46.72282" lon="5.96207">
        <ele>586</ele>
        <time>2020-12-06T14:01:07Z</time>
      </trkpt>
      <trkpt lat="46.7228" lon="5.96214">
        <ele>585.7</ele>
        <time>2020-12-06T14:01:13Z</time>
      </trkpt>
      <trkpt lat="46.72282" lon="5.96221">
        <ele>585.1</ele>
        <time>2020-12-06T14:01:20Z</time>
      </trkpt>
      <trkpt lat="46.72284" lon="5.96229">
        <ele>584.5</ele>
        <time>2020-12-06T14:01:25Z</time>
      </trkpt>
      <trkpt lat="46.72287" lon="5.96235">
        <ele>583.8</ele>
        <time>2020-12-06T14:01:30Z</time>
      </trkpt>
      <trkpt lat="46.72289" lon="5.96241">
        <ele>583.3</ele>
        <time>2020-12-06T14:01:35Z</time>
      </trkpt>
      <trkpt lat="46.72293" lon="5.96245">
        <ele>582.7</ele>
        <time>2020-12-06T14:01:44Z</time>
      </trkpt>
      <trkpt lat="46.72298" lon="5.96246">
        <ele>582.7</ele>
        <time>2020-12-06T14:01:49Z</time>
      </trkpt>
      <trkpt lat="46.72303" lon="5.96247">
        <ele>583.8</ele>
        <time>2020-12-06T14:01:57Z</time>
      </trkpt>
      <trkpt lat="46.72308" lon="5.96247">
        <ele>585.2</ele>
        <time>2020-12-06T14:02:05Z</time>
      </trkpt>
      <trkpt lat="46.72312" lon="5.96247">
        <ele>585.4</ele>
        <time>2020-12-06T14:02:11Z</time>
      </trkpt>
      <trkpt lat="46.72317" lon="5.96249">
        <ele>584.7</ele>
        <time>2020-12-06T14:02:18Z</time>
      </trkpt>
      <trkpt lat="46.72323" lon="5.96251">
        <ele>584.2</ele>
        <time>2020-12-06T14:02:23Z</time>
      </trkpt>
      <trkpt lat="46.72328" lon="5.96252">
        <ele>583.7</ele>
        <time>2020-12-06T14:02:28Z</time>
      </trkpt>
      <trkpt lat="46.72334" lon="5.96254">
        <ele>583</ele>
        <time>2020-12-06T14:02:33Z</time>
      </trkpt>
      <trkpt lat="46.72342" lon="5.96257">
        <ele>583.3</ele>
        <time>2020-12-06T14:02:38Z</time>
      </trkpt>
      <trkpt lat="46.72348" lon="5.96261">
        <ele>583.7</ele>
        <time>2020-12-06T14:02:43Z</time>
      </trkpt>
      <trkpt lat="46.7235" lon="5.96267">
        <ele>585.3</ele>
        <time>2020-12-06T14:02:49Z</time>
      </trkpt>
      <trkpt lat="46.7235" lon="5.96274">
        <ele>586.6</ele>
        <time>2020-12-06T14:03:16Z</time>
      </trkpt>
      <trkpt lat="46.72354" lon="5.96279">
        <ele>586.1</ele>
        <time>2020-12-06T14:03:23Z</time>
      </trkpt>
      <trkpt lat="46.72358" lon="5.96283">
        <ele>585.9</ele>
        <time>2020-12-06T14:03:29Z</time>
      </trkpt>
      <trkpt lat="46.72361" lon="5.96288">
        <ele>585.2</ele>
        <time>2020-12-06T14:03:44Z</time>
      </trkpt>
      <trkpt lat="46.72368" lon="5.9629">
        <ele>584.4</ele>
        <time>2020-12-06T14:03:49Z</time>
      </trkpt>
      <trkpt lat="46.72374" lon="5.96293">
        <ele>583.6</ele>
        <time>2020-12-06T14:03:54Z</time>
      </trkpt>
      <trkpt lat="46.72379" lon="5.96296">
        <ele>583</ele>
        <time>2020-12-06T14:03:59Z</time>
      </trkpt>
      <trkpt lat="46.72385" lon="5.96296">
        <ele>582.6</ele>
        <time>2020-12-06T14:04:04Z</time>
      </trkpt>
      <trkpt lat="46.7239" lon="5.96299">
        <ele>581.8</ele>
        <time>2020-12-06T14:04:10Z</time>
      </trkpt>
      <trkpt lat="46.72394" lon="5.963">
        <ele>579</ele>
        <time>2020-12-06T14:04:16Z</time>
      </trkpt>
      <trkpt lat="46.72399" lon="5.963">
        <ele>574.7</ele>
        <time>2020-12-06T14:04:22Z</time>
      </trkpt>
      <trkpt lat="46.72403" lon="5.96305">
        <ele>570</ele>
        <time>2020-12-06T14:04:28Z</time>
      </trkpt>
      <trkpt lat="46.72406" lon="5.96311">
        <ele>567.1</ele>
        <time>2020-12-06T14:04:33Z</time>
      </trkpt>
      <trkpt lat="46.72409" lon="5.96316">
        <ele>564.2</ele>
        <time>2020-12-06T14:04:38Z</time>
      </trkpt>
      <trkpt lat="46.72413" lon="5.96322">
        <ele>561</ele>
        <time>2020-12-06T14:04:44Z</time>
      </trkpt>
      <trkpt lat="46.72418" lon="5.96324">
        <ele>559.1</ele>
        <time>2020-12-06T14:04:49Z</time>
      </trkpt>
      <trkpt lat="46.72422" lon="5.96327">
        <ele>558.3</ele>
        <time>2020-12-06T14:04:54Z</time>
      </trkpt>
      <trkpt lat="46.72427" lon="5.96326">
        <ele>558.1</ele>
        <time>2020-12-06T14:05:00Z</time>
      </trkpt>
      <trkpt lat="46.72432" lon="5.96327">
        <ele>558.7</ele>
        <time>2020-12-06T14:05:05Z</time>
      </trkpt>
      <trkpt lat="46.72436" lon="5.96328">
        <ele>560.3</ele>
        <time>2020-12-06T14:05:10Z</time>
      </trkpt>
      <trkpt lat="46.72441" lon="5.9633">
        <ele>562.4</ele>
        <time>2020-12-06T14:05:15Z</time>
      </trkpt>
      <trkpt lat="46.72445" lon="5.96332">
        <ele>564.9</ele>
        <time>2020-12-06T14:05:20Z</time>
      </trkpt>
      <trkpt lat="46.72448" lon="5.96338">
        <ele>567.4</ele>
        <time>2020-12-06T14:05:25Z</time>
      </trkpt>
      <trkpt lat="46.72454" lon="5.96343">
        <ele>569.2</ele>
        <time>2020-12-06T14:05:30Z</time>
      </trkpt>
      <trkpt lat="46.7246" lon="5.96348">
        <ele>570.5</ele>
        <time>2020-12-06T14:05:35Z</time>
      </trkpt>
      <trkpt lat="46.72464" lon="5.96351">
        <ele>573.2</ele>
        <time>2020-12-06T14:05:44Z</time>
      </trkpt>
      <trkpt lat="46.72469" lon="5.96354">
        <ele>574.6</ele>
        <time>2020-12-06T14:05:49Z</time>
      </trkpt>
      <trkpt lat="46.72474" lon="5.96356">
        <ele>575.9</ele>
        <time>2020-12-06T14:05:54Z</time>
      </trkpt>
      <trkpt lat="46.72478" lon="5.96358">
        <ele>577.1</ele>
        <time>2020-12-06T14:06:02Z</time>
      </trkpt>
      <trkpt lat="46.72483" lon="5.96362">
        <ele>576.9</ele>
        <time>2020-12-06T14:06:14Z</time>
      </trkpt>
      <trkpt lat="46.72487" lon="5.96365">
        <ele>577</ele>
        <time>2020-12-06T14:06:22Z</time>
      </trkpt>
      <trkpt lat="46.72491" lon="5.96369">
        <ele>577.8</ele>
        <time>2020-12-06T14:06:29Z</time>
      </trkpt>
      <trkpt lat="46.72494" lon="5.96374">
        <ele>578.8</ele>
        <time>2020-12-06T14:06:39Z</time>
      </trkpt>
      <trkpt lat="46.72499" lon="5.96377">
        <ele>579.3</ele>
        <time>2020-12-06T14:06:44Z</time>
      </trkpt>
      <trkpt lat="46.72504" lon="5.96378">
        <ele>580.3</ele>
        <time>2020-12-06T14:06:51Z</time>
      </trkpt>
      <trkpt lat="46.72509" lon="5.9638">
        <ele>580.5</ele>
        <time>2020-12-06T14:06:57Z</time>
      </trkpt>
      <trkpt lat="46.72514" lon="5.96386">
        <ele>578.5</ele>
        <time>2020-12-06T14:07:02Z</time>
      </trkpt>
      <trkpt lat="46.72519" lon="5.96391">
        <ele>575.2</ele>
        <time>2020-12-06T14:07:07Z</time>
      </trkpt>
      <trkpt lat="46.72524" lon="5.96391">
        <ele>572</ele>
        <time>2020-12-06T14:07:13Z</time>
      </trkpt>
      <trkpt lat="46.72529" lon="5.96392">
        <ele>569.8</ele>
        <time>2020-12-06T14:07:18Z</time>
      </trkpt>
      <trkpt lat="46.72534" lon="5.96391">
        <ele>567.2</ele>
        <time>2020-12-06T14:07:24Z</time>
      </trkpt>
      <trkpt lat="46.72537" lon="5.96386">
        <ele>565.3</ele>
        <time>2020-12-06T14:07:29Z</time>
      </trkpt>
      <trkpt lat="46.7254" lon="5.9638">
        <ele>563.5</ele>
        <time>2020-12-06T14:07:35Z</time>
      </trkpt>
      <trkpt lat="46.72541" lon="5.96373">
        <ele>563.1</ele>
        <time>2020-12-06T14:07:41Z</time>
      </trkpt>
      <trkpt lat="46.72541" lon="5.96366">
        <ele>563.9</ele>
        <time>2020-12-06T14:07:48Z</time>
      </trkpt>
      <trkpt lat="46.72542" lon="5.9636">
        <ele>566</ele>
        <time>2020-12-06T14:07:58Z</time>
      </trkpt>
      <trkpt lat="46.72541" lon="5.96353">
        <ele>568</ele>
        <time>2020-12-06T14:08:06Z</time>
      </trkpt>
      <trkpt lat="46.72538" lon="5.96357">
        <ele>573.4</ele>
        <time>2020-12-06T14:08:16Z</time>
      </trkpt>
      <trkpt lat="46.72531" lon="5.96376">
        <ele>587.6</ele>
        <time>2020-12-06T14:08:21Z</time>
      </trkpt>
      <trkpt lat="46.72529" lon="5.96383">
        <ele>603.8</ele>
        <time>2020-12-06T14:08:46Z</time>
      </trkpt>
      <trkpt lat="46.72523" lon="5.96383">
        <ele>604.8</ele>
        <time>2020-12-06T14:08:52Z</time>
      </trkpt>
      <trkpt lat="46.72519" lon="5.96382">
        <ele>605.6</ele>
        <time>2020-12-06T14:08:57Z</time>
      </trkpt>
      <trkpt lat="46.72513" lon="5.96377">
        <ele>605.7</ele>
        <time>2020-12-06T14:09:02Z</time>
      </trkpt>
      <trkpt lat="46.7251" lon="5.9637">
        <ele>603.7</ele>
        <time>2020-12-06T14:09:07Z</time>
      </trkpt>
      <trkpt lat="46.7251" lon="5.96362">
        <ele>598.3</ele>
        <time>2020-12-06T14:09:13Z</time>
      </trkpt>
      <trkpt lat="46.7251" lon="5.96355">
        <ele>593.9</ele>
        <time>2020-12-06T14:09:18Z</time>
      </trkpt>
      <trkpt lat="46.72507" lon="5.96348">
        <ele>589.7</ele>
        <time>2020-12-06T14:09:24Z</time>
      </trkpt>
      <trkpt lat="46.72503" lon="5.96343">
        <ele>587.1</ele>
        <time>2020-12-06T14:09:30Z</time>
      </trkpt>
      <trkpt lat="46.725" lon="5.96339">
        <ele>585</ele>
        <time>2020-12-06T14:09:35Z</time>
      </trkpt>
      <trkpt lat="46.72495" lon="5.96334">
        <ele>582.9</ele>
        <time>2020-12-06T14:09:41Z</time>
      </trkpt>
      <trkpt lat="46.72491" lon="5.96329">
        <ele>581.7</ele>
        <time>2020-12-06T14:09:46Z</time>
      </trkpt>
      <trkpt lat="46.72487" lon="5.96324">
        <ele>580.8</ele>
        <time>2020-12-06T14:09:51Z</time>
      </trkpt>
      <trkpt lat="46.72483" lon="5.96321">
        <ele>580.2</ele>
        <time>2020-12-06T14:09:56Z</time>
      </trkpt>
      <trkpt lat="46.72479" lon="5.96318">
        <ele>579.7</ele>
        <time>2020-12-06T14:10:02Z</time>
      </trkpt>
      <trkpt lat="46.72476" lon="5.96313">
        <ele>579.6</ele>
        <time>2020-12-06T14:10:09Z</time>
      </trkpt>
      <trkpt lat="46.72471" lon="5.96308">
        <ele>579.1</ele>
        <time>2020-12-06T14:10:14Z</time>
      </trkpt>
      <trkpt lat="46.72467" lon="5.96304">
        <ele>578</ele>
        <time>2020-12-06T14:10:20Z</time>
      </trkpt>
      <trkpt lat="46.72462" lon="5.96301">
        <ele>576.4</ele>
        <time>2020-12-06T14:10:27Z</time>
      </trkpt>
      <trkpt lat="46.72457" lon="5.96298">
        <ele>575</ele>
        <time>2020-12-06T14:10:33Z</time>
      </trkpt>
      <trkpt lat="46.72453" lon="5.96295">
        <ele>574.4</ele>
        <time>2020-12-06T14:10:38Z</time>
      </trkpt>
      <trkpt lat="46.72448" lon="5.96293">
        <ele>574.6</ele>
        <time>2020-12-06T14:10:43Z</time>
      </trkpt>
      <trkpt lat="46.72443" lon="5.96293">
        <ele>575.1</ele>
        <time>2020-12-06T14:10:49Z</time>
      </trkpt>
      <trkpt lat="46.72437" lon="5.9629">
        <ele>576.1</ele>
        <time>2020-12-06T14:10:54Z</time>
      </trkpt>
      <trkpt lat="46.72433" lon="5.96286">
        <ele>577.2</ele>
        <time>2020-12-06T14:10:59Z</time>
      </trkpt>
      <trkpt lat="46.72429" lon="5.96281">
        <ele>578.7</ele>
        <time>2020-12-06T14:11:05Z</time>
      </trkpt>
      <trkpt lat="46.72426" lon="5.96277">
        <ele>580.9</ele>
        <time>2020-12-06T14:11:12Z</time>
      </trkpt>
      <trkpt lat="46.72422" lon="5.96272">
        <ele>583</ele>
        <time>2020-12-06T14:11:19Z</time>
      </trkpt>
      <trkpt lat="46.7242" lon="5.96266">
        <ele>584.3</ele>
        <time>2020-12-06T14:11:24Z</time>
      </trkpt>
      <trkpt lat="46.72416" lon="5.96262">
        <ele>585.8</ele>
        <time>2020-12-06T14:11:29Z</time>
      </trkpt>
      <trkpt lat="46.72411" lon="5.9626">
        <ele>587.8</ele>
        <time>2020-12-06T14:11:35Z</time>
      </trkpt>
      <trkpt lat="46.72407" lon="5.96257">
        <ele>589.6</ele>
        <time>2020-12-06T14:11:40Z</time>
      </trkpt>
      <trkpt lat="46.72403" lon="5.96254">
        <ele>591.4</ele>
        <time>2020-12-06T14:11:45Z</time>
      </trkpt>
      <trkpt lat="46.724" lon="5.96249">
        <ele>593.2</ele>
        <time>2020-12-06T14:11:50Z</time>
      </trkpt>
      <trkpt lat="46.72397" lon="5.96243">
        <ele>594.9</ele>
        <time>2020-12-06T14:11:56Z</time>
      </trkpt>
      <trkpt lat="46.72394" lon="5.96238">
        <ele>593</ele>
        <time>2020-12-06T14:12:02Z</time>
      </trkpt>
      <trkpt lat="46.7239" lon="5.96233">
        <ele>591</ele>
        <time>2020-12-06T14:12:07Z</time>
      </trkpt>
      <trkpt lat="46.72387" lon="5.96227">
        <ele>589.3</ele>
        <time>2020-12-06T14:12:13Z</time>
      </trkpt>
      <trkpt lat="46.72385" lon="5.96221">
        <ele>588.2</ele>
        <time>2020-12-06T14:12:18Z</time>
      </trkpt>
      <trkpt lat="46.72382" lon="5.96215">
        <ele>587.7</ele>
        <time>2020-12-06T14:12:25Z</time>
      </trkpt>
      <trkpt lat="46.72379" lon="5.9621">
        <ele>587.8</ele>
        <time>2020-12-06T14:12:31Z</time>
      </trkpt>
      <trkpt lat="46.72379" lon="5.96202">
        <ele>587.3</ele>
        <time>2020-12-06T14:12:38Z</time>
      </trkpt>
      <trkpt lat="46.72378" lon="5.96195">
        <ele>587.1</ele>
        <time>2020-12-06T14:12:45Z</time>
      </trkpt>
      <trkpt lat="46.72378" lon="5.96187">
        <ele>587.1</ele>
        <time>2020-12-06T14:12:51Z</time>
      </trkpt>
      <trkpt lat="46.72379" lon="5.9618">
        <ele>587.4</ele>
        <time>2020-12-06T14:12:56Z</time>
      </trkpt>
      <trkpt lat="46.72381" lon="5.96171">
        <ele>587.9</ele>
        <time>2020-12-06T14:13:01Z</time>
      </trkpt>
      <trkpt lat="46.72382" lon="5.96163">
        <ele>588.6</ele>
        <time>2020-12-06T14:13:06Z</time>
      </trkpt>
      <trkpt lat="46.72384" lon="5.96156">
        <ele>590.2</ele>
        <time>2020-12-06T14:13:12Z</time>
      </trkpt>
      <trkpt lat="46.72387" lon="5.96151">
        <ele>591.4</ele>
        <time>2020-12-06T14:13:19Z</time>
      </trkpt>
      <trkpt lat="46.7239" lon="5.96145">
        <ele>593.2</ele>
        <time>2020-12-06T14:13:27Z</time>
      </trkpt>
      <trkpt lat="46.72391" lon="5.96138">
        <ele>594.6</ele>
        <time>2020-12-06T14:13:33Z</time>
      </trkpt>
      <trkpt lat="46.72393" lon="5.96131">
        <ele>596</ele>
        <time>2020-12-06T14:13:39Z</time>
      </trkpt>
      <trkpt lat="46.72395" lon="5.96124">
        <ele>597.7</ele>
        <time>2020-12-06T14:13:45Z</time>
      </trkpt>
      <trkpt lat="46.72398" lon="5.96118">
        <ele>599.1</ele>
        <time>2020-12-06T14:13:51Z</time>
      </trkpt>
      <trkpt lat="46.72401" lon="5.96113">
        <ele>600.2</ele>
        <time>2020-12-06T14:13:57Z</time>
      </trkpt>
      <trkpt lat="46.72403" lon="5.96107">
        <ele>600.8</ele>
        <time>2020-12-06T14:14:02Z</time>
      </trkpt>
      <trkpt lat="46.72405" lon="5.961">
        <ele>601.5</ele>
        <time>2020-12-06T14:14:07Z</time>
      </trkpt>
      <trkpt lat="46.72407" lon="5.96094">
        <ele>602.6</ele>
        <time>2020-12-06T14:14:13Z</time>
      </trkpt>
      <trkpt lat="46.72409" lon="5.96087">
        <ele>603.1</ele>
        <time>2020-12-06T14:14:20Z</time>
      </trkpt>
      <trkpt lat="46.72412" lon="5.96081">
        <ele>603.1</ele>
        <time>2020-12-06T14:14:25Z</time>
      </trkpt>
      <trkpt lat="46.72414" lon="5.96075">
        <ele>603</ele>
        <time>2020-12-06T14:14:30Z</time>
      </trkpt>
      <trkpt lat="46.72418" lon="5.9607">
        <ele>602.2</ele>
        <time>2020-12-06T14:14:35Z</time>
      </trkpt>
      <trkpt lat="46.72422" lon="5.96064">
        <ele>601</ele>
        <time>2020-12-06T14:14:40Z</time>
      </trkpt>
      <trkpt lat="46.72424" lon="5.96058">
        <ele>597.9</ele>
        <time>2020-12-06T14:15:02Z</time>
      </trkpt>
      <trkpt lat="46.72428" lon="5.96053">
        <ele>596.7</ele>
        <time>2020-12-06T14:15:18Z</time>
      </trkpt>
      <trkpt lat="46.72433" lon="5.96053">
        <ele>596.1</ele>
        <time>2020-12-06T14:15:25Z</time>
      </trkpt>
      <trkpt lat="46.72438" lon="5.96057">
        <ele>595.5</ele>
        <time>2020-12-06T14:15:42Z</time>
      </trkpt>
      <trkpt lat="46.72443" lon="5.96059">
        <ele>595.7</ele>
        <time>2020-12-06T14:15:47Z</time>
      </trkpt>
      <trkpt lat="46.72447" lon="5.96062">
        <ele>596.3</ele>
        <time>2020-12-06T14:15:53Z</time>
      </trkpt>
      <trkpt lat="46.72451" lon="5.96066">
        <ele>597.1</ele>
        <time>2020-12-06T14:15:58Z</time>
      </trkpt>
      <trkpt lat="46.72455" lon="5.96071">
        <ele>598</ele>
        <time>2020-12-06T14:16:03Z</time>
      </trkpt>
      <trkpt lat="46.7246" lon="5.96075">
        <ele>599.2</ele>
        <time>2020-12-06T14:16:09Z</time>
      </trkpt>
      <trkpt lat="46.72462" lon="5.9608">
        <ele>600.3</ele>
        <time>2020-12-06T14:16:15Z</time>
      </trkpt>
      <trkpt lat="46.72465" lon="5.96086">
        <ele>601.9</ele>
        <time>2020-12-06T14:16:24Z</time>
      </trkpt>
      <trkpt lat="46.7247" lon="5.96089">
        <ele>602.6</ele>
        <time>2020-12-06T14:16:29Z</time>
      </trkpt>
      <trkpt lat="46.72475" lon="5.96092">
        <ele>603.4</ele>
        <time>2020-12-06T14:16:34Z</time>
      </trkpt>
      <trkpt lat="46.72479" lon="5.96092">
        <ele>604.7</ele>
        <time>2020-12-06T14:16:43Z</time>
      </trkpt>
      <trkpt lat="46.72484" lon="5.96094">
        <ele>605.5</ele>
        <time>2020-12-06T14:16:57Z</time>
      </trkpt>
      <trkpt lat="46.72489" lon="5.96096">
        <ele>606.2</ele>
        <time>2020-12-06T14:17:02Z</time>
      </trkpt>
      <trkpt lat="46.72493" lon="5.961">
        <ele>607.2</ele>
        <time>2020-12-06T14:17:09Z</time>
      </trkpt>
      <trkpt lat="46.72497" lon="5.96104">
        <ele>608</ele>
        <time>2020-12-06T14:17:16Z</time>
      </trkpt>
      <trkpt lat="46.72502" lon="5.96106">
        <ele>608.4</ele>
        <time>2020-12-06T14:17:22Z</time>
      </trkpt>
      <trkpt lat="46.72507" lon="5.96107">
        <ele>608.6</ele>
        <time>2020-12-06T14:17:28Z</time>
      </trkpt>
      <trkpt lat="46.72512" lon="5.96108">
        <ele>609.3</ele>
        <time>2020-12-06T14:17:34Z</time>
      </trkpt>
      <trkpt lat="46.72516" lon="5.96109">
        <ele>609.9</ele>
        <time>2020-12-06T14:17:39Z</time>
      </trkpt>
      <trkpt lat="46.72521" lon="5.9611">
        <ele>610.8</ele>
        <time>2020-12-06T14:17:46Z</time>
      </trkpt>
      <trkpt lat="46.72526" lon="5.96112">
        <ele>611.2</ele>
        <time>2020-12-06T14:17:54Z</time>
      </trkpt>
      <trkpt lat="46.72531" lon="5.96113">
        <ele>610.9</ele>
        <time>2020-12-06T14:18:02Z</time>
      </trkpt>
      <trkpt lat="46.72535" lon="5.96113">
        <ele>610.5</ele>
        <time>2020-12-06T14:18:10Z</time>
      </trkpt>
      <trkpt lat="46.7254" lon="5.96111">
        <ele>610.8</ele>
        <time>2020-12-06T14:18:31Z</time>
      </trkpt>
      <trkpt lat="46.72545" lon="5.96112">
        <ele>612.2</ele>
        <time>2020-12-06T14:18:43Z</time>
      </trkpt>
      <trkpt lat="46.72549" lon="5.96114">
        <ele>613</ele>
        <time>2020-12-06T14:18:49Z</time>
      </trkpt>
      <trkpt lat="46.72554" lon="5.96116">
        <ele>614.1</ele>
        <time>2020-12-06T14:18:56Z</time>
      </trkpt>
      <trkpt lat="46.72559" lon="5.96117">
        <ele>615.2</ele>
        <time>2020-12-06T14:19:01Z</time>
      </trkpt>
      <trkpt lat="46.72564" lon="5.96118">
        <ele>615.9</ele>
        <time>2020-12-06T14:19:06Z</time>
      </trkpt>
      <trkpt lat="46.72569" lon="5.9612">
        <ele>616.7</ele>
        <time>2020-12-06T14:19:12Z</time>
      </trkpt>
      <trkpt lat="46.72574" lon="5.96122">
        <ele>617.5</ele>
        <time>2020-12-06T14:19:18Z</time>
      </trkpt>
      <trkpt lat="46.72578" lon="5.96125">
        <ele>618.7</ele>
        <time>2020-12-06T14:19:24Z</time>
      </trkpt>
      <trkpt lat="46.72582" lon="5.96127">
        <ele>620.5</ele>
        <time>2020-12-06T14:19:34Z</time>
      </trkpt>
      <trkpt lat="46.72587" lon="5.9613">
        <ele>622.6</ele>
        <time>2020-12-06T14:21:52Z</time>
      </trkpt>
      <trkpt lat="46.72591" lon="5.96127">
        <ele>623.1</ele>
        <time>2020-12-06T14:22:06Z</time>
      </trkpt>
      <trkpt lat="46.72596" lon="5.96126">
        <ele>622.4</ele>
        <time>2020-12-06T14:22:16Z</time>
      </trkpt>
      <trkpt lat="46.72599" lon="5.96131">
        <ele>621.6</ele>
        <time>2020-12-06T14:22:21Z</time>
      </trkpt>
      <trkpt lat="46.72602" lon="5.96138">
        <ele>621</ele>
        <time>2020-12-06T14:22:26Z</time>
      </trkpt>
      <trkpt lat="46.72606" lon="5.96146">
        <ele>621.2</ele>
        <time>2020-12-06T14:22:31Z</time>
      </trkpt>
      <trkpt lat="46.72609" lon="5.96152">
        <ele>621.8</ele>
        <time>2020-12-06T14:22:36Z</time>
      </trkpt>
      <trkpt lat="46.72612" lon="5.96158">
        <ele>622</ele>
        <time>2020-12-06T14:22:41Z</time>
      </trkpt>
      <trkpt lat="46.72614" lon="5.96165">
        <ele>622.6</ele>
        <time>2020-12-06T14:22:46Z</time>
      </trkpt>
      <trkpt lat="46.72616" lon="5.96173">
        <ele>623.4</ele>
        <time>2020-12-06T14:22:51Z</time>
      </trkpt>
      <trkpt lat="46.72618" lon="5.96179">
        <ele>624.9</ele>
        <time>2020-12-06T14:22:56Z</time>
      </trkpt>
      <trkpt lat="46.72621" lon="5.96184">
        <ele>626</ele>
        <time>2020-12-06T14:23:01Z</time>
      </trkpt>
      <trkpt lat="46.72625" lon="5.9619">
        <ele>627.3</ele>
        <time>2020-12-06T14:23:08Z</time>
      </trkpt>
      <trkpt lat="46.72628" lon="5.96195">
        <ele>628.1</ele>
        <time>2020-12-06T14:23:14Z</time>
      </trkpt>
      <trkpt lat="46.72631" lon="5.96201">
        <ele>628.8</ele>
        <time>2020-12-06T14:23:19Z</time>
      </trkpt>
      <trkpt lat="46.72634" lon="5.96206">
        <ele>629.4</ele>
        <time>2020-12-06T14:23:24Z</time>
      </trkpt>
      <trkpt lat="46.72638" lon="5.9621">
        <ele>630</ele>
        <time>2020-12-06T14:23:29Z</time>
      </trkpt>
      <trkpt lat="46.72642" lon="5.96214">
        <ele>630.4</ele>
        <time>2020-12-06T14:23:35Z</time>
      </trkpt>
      <trkpt lat="46.72646" lon="5.96219">
        <ele>630.5</ele>
        <time>2020-12-06T14:23:42Z</time>
      </trkpt>
      <trkpt lat="46.72649" lon="5.96224">
        <ele>630.3</ele>
        <time>2020-12-06T14:23:48Z</time>
      </trkpt>
      <trkpt lat="46.72651" lon="5.9623">
        <ele>630.5</ele>
        <time>2020-12-06T14:23:54Z</time>
      </trkpt>
      <trkpt lat="46.72654" lon="5.96235">
        <ele>631</ele>
        <time>2020-12-06T14:24:01Z</time>
      </trkpt>
      <trkpt lat="46.72658" lon="5.9624">
        <ele>631.8</ele>
        <time>2020-12-06T14:24:08Z</time>
      </trkpt>
      <trkpt lat="46.72661" lon="5.96245">
        <ele>632.3</ele>
        <time>2020-12-06T14:24:13Z</time>
      </trkpt>
      <trkpt lat="46.72666" lon="5.96249">
        <ele>632.8</ele>
        <time>2020-12-06T14:24:18Z</time>
      </trkpt>
      <trkpt lat="46.7267" lon="5.96253">
        <ele>633</ele>
        <time>2020-12-06T14:24:23Z</time>
      </trkpt>
      <trkpt lat="46.72673" lon="5.96258">
        <ele>632.7</ele>
        <time>2020-12-06T14:24:28Z</time>
      </trkpt>
      <trkpt lat="46.72676" lon="5.96263">
        <ele>632.4</ele>
        <time>2020-12-06T14:24:33Z</time>
      </trkpt>
      <trkpt lat="46.72679" lon="5.96269">
        <ele>631.9</ele>
        <time>2020-12-06T14:24:39Z</time>
      </trkpt>
      <trkpt lat="46.72683" lon="5.96273">
        <ele>632.4</ele>
        <time>2020-12-06T14:24:47Z</time>
      </trkpt>
      <trkpt lat="46.72684" lon="5.96279">
        <ele>633.2</ele>
        <time>2020-12-06T14:24:53Z</time>
      </trkpt>
      <trkpt lat="46.72687" lon="5.96285">
        <ele>634</ele>
        <time>2020-12-06T14:24:59Z</time>
      </trkpt>
      <trkpt lat="46.72689" lon="5.96291">
        <ele>634.6</ele>
        <time>2020-12-06T14:25:05Z</time>
      </trkpt>
      <trkpt lat="46.7269" lon="5.96297">
        <ele>635.4</ele>
        <time>2020-12-06T14:25:11Z</time>
      </trkpt>
      <trkpt lat="46.72694" lon="5.96303">
        <ele>636.5</ele>
        <time>2020-12-06T14:25:17Z</time>
      </trkpt>
      <trkpt lat="46.72697" lon="5.96307">
        <ele>637.6</ele>
        <time>2020-12-06T14:25:26Z</time>
      </trkpt>
      <trkpt lat="46.72701" lon="5.96311">
        <ele>638.1</ele>
        <time>2020-12-06T14:25:36Z</time>
      </trkpt>
      <trkpt lat="46.72705" lon="5.96315">
        <ele>638.5</ele>
        <time>2020-12-06T14:25:42Z</time>
      </trkpt>
      <trkpt lat="46.72709" lon="5.9632">
        <ele>639.1</ele>
        <time>2020-12-06T14:25:51Z</time>
      </trkpt>
      <trkpt lat="46.72714" lon="5.96323">
        <ele>639.5</ele>
        <time>2020-12-06T14:25:58Z</time>
      </trkpt>
      <trkpt lat="46.72717" lon="5.96327">
        <ele>639.9</ele>
        <time>2020-12-06T14:26:08Z</time>
      </trkpt>
      <trkpt lat="46.72722" lon="5.96329">
        <ele>639.9</ele>
        <time>2020-12-06T14:26:13Z</time>
      </trkpt>
      <trkpt lat="46.72728" lon="5.96331">
        <ele>639.7</ele>
        <time>2020-12-06T14:26:18Z</time>
      </trkpt>
      <trkpt lat="46.72732" lon="5.96335">
        <ele>639.5</ele>
        <time>2020-12-06T14:26:24Z</time>
      </trkpt>
      <trkpt lat="46.72737" lon="5.96339">
        <ele>639.2</ele>
        <time>2020-12-06T14:26:31Z</time>
      </trkpt>
      <trkpt lat="46.72741" lon="5.96342">
        <ele>639</ele>
        <time>2020-12-06T14:26:37Z</time>
      </trkpt>
      <trkpt lat="46.72745" lon="5.96346">
        <ele>638.6</ele>
        <time>2020-12-06T14:26:44Z</time>
      </trkpt>
      <trkpt lat="46.7275" lon="5.96348">
        <ele>638.5</ele>
        <time>2020-12-06T14:26:49Z</time>
      </trkpt>
      <trkpt lat="46.72755" lon="5.96352">
        <ele>638.4</ele>
        <time>2020-12-06T14:26:54Z</time>
      </trkpt>
      <trkpt lat="46.72759" lon="5.96356">
        <ele>638.3</ele>
        <time>2020-12-06T14:27:00Z</time>
      </trkpt>
      <trkpt lat="46.72764" lon="5.9636">
        <ele>638.3</ele>
        <time>2020-12-06T14:27:09Z</time>
      </trkpt>
      <trkpt lat="46.72769" lon="5.96361">
        <ele>638.3</ele>
        <time>2020-12-06T14:27:14Z</time>
      </trkpt>
      <trkpt lat="46.72774" lon="5.96362">
        <ele>638.2</ele>
        <time>2020-12-06T14:27:19Z</time>
      </trkpt>
      <trkpt lat="46.7278" lon="5.96362">
        <ele>638</ele>
        <time>2020-12-06T14:27:28Z</time>
      </trkpt>
      <trkpt lat="46.72787" lon="5.96363">
        <ele>638.2</ele>
        <time>2020-12-06T14:27:33Z</time>
      </trkpt>
      <trkpt lat="46.72797" lon="5.96364">
        <ele>644.1</ele>
        <time>2020-12-06T14:27:38Z</time>
      </trkpt>
      <trkpt lat="46.72802" lon="5.96364">
        <ele>648.9</ele>
        <time>2020-12-06T14:27:46Z</time>
      </trkpt>
      <trkpt lat="46.72808" lon="5.96365">
        <ele>652.6</ele>
        <time>2020-12-06T14:28:07Z</time>
      </trkpt>
      <trkpt lat="46.72812" lon="5.96368">
        <ele>652.9</ele>
        <time>2020-12-06T14:28:22Z</time>
      </trkpt>
      <trkpt lat="46.72817" lon="5.96371">
        <ele>651.9</ele>
        <time>2020-12-06T14:28:29Z</time>
      </trkpt>
      <trkpt lat="46.72823" lon="5.96373">
        <ele>650.6</ele>
        <time>2020-12-06T14:28:34Z</time>
      </trkpt>
      <trkpt lat="46.72827" lon="5.96377">
        <ele>648.9</ele>
        <time>2020-12-06T14:28:40Z</time>
      </trkpt>
      <trkpt lat="46.72831" lon="5.96381">
        <ele>647.7</ele>
        <time>2020-12-06T14:28:45Z</time>
      </trkpt>
      <trkpt lat="46.72834" lon="5.96388">
        <ele>646.7</ele>
        <time>2020-12-06T14:28:52Z</time>
      </trkpt>
      <trkpt lat="46.72837" lon="5.96394">
        <ele>646.4</ele>
        <time>2020-12-06T14:28:58Z</time>
      </trkpt>
      <trkpt lat="46.72834" lon="5.96402">
        <ele>647.5</ele>
        <time>2020-12-06T14:29:24Z</time>
      </trkpt>
      <trkpt lat="46.72833" lon="5.9641">
        <ele>647.6</ele>
        <time>2020-12-06T14:29:29Z</time>
      </trkpt>
      <trkpt lat="46.72841" lon="5.96412">
        <ele>650</ele>
        <time>2020-12-06T14:29:48Z</time>
      </trkpt>
      <trkpt lat="46.72846" lon="5.96413">
        <ele>653.6</ele>
        <time>2020-12-06T14:29:53Z</time>
      </trkpt>
      <trkpt lat="46.72841" lon="5.96409">
        <ele>656.3</ele>
        <time>2020-12-06T14:32:19Z</time>
      </trkpt>
      <trkpt lat="46.72837" lon="5.96405">
        <ele>655.7</ele>
        <time>2020-12-06T14:32:25Z</time>
      </trkpt>
      <trkpt lat="46.72833" lon="5.96399">
        <ele>655</ele>
        <time>2020-12-06T14:32:31Z</time>
      </trkpt>
      <trkpt lat="46.72831" lon="5.96394">
        <ele>654.4</ele>
        <time>2020-12-06T14:32:44Z</time>
      </trkpt>
      <trkpt lat="46.72826" lon="5.96393">
        <ele>654.6</ele>
        <time>2020-12-06T14:33:06Z</time>
      </trkpt>
      <trkpt lat="46.72821" lon="5.96392">
        <ele>655.3</ele>
        <time>2020-12-06T14:33:11Z</time>
      </trkpt>
      <trkpt lat="46.72819" lon="5.96385">
        <ele>653.7</ele>
        <time>2020-12-06T14:33:18Z</time>
      </trkpt>
      <trkpt lat="46.72819" lon="5.96378">
        <ele>652.9</ele>
        <time>2020-12-06T14:33:24Z</time>
      </trkpt>
      <trkpt lat="46.72815" lon="5.96374">
        <ele>652.3</ele>
        <time>2020-12-06T14:33:29Z</time>
      </trkpt>
      <trkpt lat="46.72815" lon="5.96367">
        <ele>647.4</ele>
        <time>2020-12-06T14:33:38Z</time>
      </trkpt>
      <trkpt lat="46.72817" lon="5.9636">
        <ele>643.6</ele>
        <time>2020-12-06T14:33:43Z</time>
      </trkpt>
      <trkpt lat="46.72818" lon="5.96354">
        <ele>642.8</ele>
        <time>2020-12-06T14:33:49Z</time>
      </trkpt>
      <trkpt lat="46.72816" lon="5.96348">
        <ele>644.2</ele>
        <time>2020-12-06T14:33:54Z</time>
      </trkpt>
      <trkpt lat="46.72812" lon="5.96343">
        <ele>646.1</ele>
        <time>2020-12-06T14:33:59Z</time>
      </trkpt>
      <trkpt lat="46.72807" lon="5.96338">
        <ele>647.6</ele>
        <time>2020-12-06T14:34:04Z</time>
      </trkpt>
      <trkpt lat="46.72802" lon="5.96333">
        <ele>649.2</ele>
        <time>2020-12-06T14:34:09Z</time>
      </trkpt>
      <trkpt lat="46.72798" lon="5.96326">
        <ele>652.2</ele>
        <time>2020-12-06T14:34:14Z</time>
      </trkpt>
      <trkpt lat="46.72794" lon="5.96321">
        <ele>656.9</ele>
        <time>2020-12-06T14:34:19Z</time>
      </trkpt>
      <trkpt lat="46.7279" lon="5.96316">
        <ele>662.6</ele>
        <time>2020-12-06T14:34:24Z</time>
      </trkpt>
      <trkpt lat="46.72786" lon="5.96313">
        <ele>668.5</ele>
        <time>2020-12-06T14:34:30Z</time>
      </trkpt>
      <trkpt lat="46.72782" lon="5.96308">
        <ele>671.2</ele>
        <time>2020-12-06T14:34:35Z</time>
      </trkpt>
      <trkpt lat="46.72779" lon="5.96299">
        <ele>672.1</ele>
        <time>2020-12-06T14:34:40Z</time>
      </trkpt>
      <trkpt lat="46.72777" lon="5.96291">
        <ele>671.7</ele>
        <time>2020-12-06T14:34:45Z</time>
      </trkpt>
      <trkpt lat="46.72774" lon="5.96286">
        <ele>671.7</ele>
        <time>2020-12-06T14:34:52Z</time>
      </trkpt>
      <trkpt lat="46.7277" lon="5.96281">
        <ele>671.8</ele>
        <time>2020-12-06T14:34:58Z</time>
      </trkpt>
      <trkpt lat="46.72768" lon="5.96274">
        <ele>671.8</ele>
        <time>2020-12-06T14:35:03Z</time>
      </trkpt>
      <trkpt lat="46.72766" lon="5.96268">
        <ele>671.3</ele>
        <time>2020-12-06T14:35:10Z</time>
      </trkpt>
      <trkpt lat="46.72763" lon="5.96262">
        <ele>670.7</ele>
        <time>2020-12-06T14:35:16Z</time>
      </trkpt>
      <trkpt lat="46.72762" lon="5.96255">
        <ele>669.6</ele>
        <time>2020-12-06T14:35:21Z</time>
      </trkpt>
      <trkpt lat="46.72761" lon="5.96248">
        <ele>668.5</ele>
        <time>2020-12-06T14:35:27Z</time>
      </trkpt>
      <trkpt lat="46.72761" lon="5.96241">
        <ele>667.7</ele>
        <time>2020-12-06T14:35:32Z</time>
      </trkpt>
      <trkpt lat="46.72762" lon="5.96234">
        <ele>666.9</ele>
        <time>2020-12-06T14:35:37Z</time>
      </trkpt>
      <trkpt lat="46.72762" lon="5.96227">
        <ele>666.1</ele>
        <time>2020-12-06T14:35:42Z</time>
      </trkpt>
      <trkpt lat="46.72762" lon="5.96219">
        <ele>665.3</ele>
        <time>2020-12-06T14:35:48Z</time>
      </trkpt>
      <trkpt lat="46.72762" lon="5.96212">
        <ele>664.7</ele>
        <time>2020-12-06T14:35:54Z</time>
      </trkpt>
      <trkpt lat="46.72762" lon="5.96205">
        <ele>664.2</ele>
        <time>2020-12-06T14:35:59Z</time>
      </trkpt>
      <trkpt lat="46.72762" lon="5.96198">
        <ele>664.1</ele>
        <time>2020-12-06T14:36:05Z</time>
      </trkpt>
      <trkpt lat="46.7276" lon="5.96192">
        <ele>664.5</ele>
        <time>2020-12-06T14:36:13Z</time>
      </trkpt>
      <trkpt lat="46.72758" lon="5.96185">
        <ele>665.7</ele>
        <time>2020-12-06T14:36:38Z</time>
      </trkpt>
      <trkpt lat="46.72758" lon="5.96178">
        <ele>666</ele>
        <time>2020-12-06T14:36:44Z</time>
      </trkpt>
      <trkpt lat="46.72758" lon="5.96171">
        <ele>667</ele>
        <time>2020-12-06T14:36:51Z</time>
      </trkpt>
      <trkpt lat="46.72758" lon="5.96164">
        <ele>667.9</ele>
        <time>2020-12-06T14:36:57Z</time>
      </trkpt>
      <trkpt lat="46.72758" lon="5.96157">
        <ele>668.5</ele>
        <time>2020-12-06T14:37:03Z</time>
      </trkpt>
      <trkpt lat="46.72758" lon="5.9615">
        <ele>668.8</ele>
        <time>2020-12-06T14:37:09Z</time>
      </trkpt>
      <trkpt lat="46.72758" lon="5.96143">
        <ele>669</ele>
        <time>2020-12-06T14:37:14Z</time>
      </trkpt>
      <trkpt lat="46.7276" lon="5.96137">
        <ele>669.2</ele>
        <time>2020-12-06T14:37:19Z</time>
      </trkpt>
      <trkpt lat="46.72763" lon="5.96131">
        <ele>669.5</ele>
        <time>2020-12-06T14:37:26Z</time>
      </trkpt>
      <trkpt lat="46.72766" lon="5.96126">
        <ele>670</ele>
        <time>2020-12-06T14:37:53Z</time>
      </trkpt>
      <trkpt lat="46.7277" lon="5.96128">
        <ele>670.4</ele>
        <time>2020-12-06T14:38:00Z</time>
      </trkpt>
      <trkpt lat="46.72775" lon="5.9613">
        <ele>670.4</ele>
        <time>2020-12-06T14:38:06Z</time>
      </trkpt>
      <trkpt lat="46.7278" lon="5.96132">
        <ele>670.5</ele>
        <time>2020-12-06T14:38:11Z</time>
      </trkpt>
      <trkpt lat="46.72783" lon="5.96137">
        <ele>670.6</ele>
        <time>2020-12-06T14:38:16Z</time>
      </trkpt>
      <trkpt lat="46.72787" lon="5.96142">
        <ele>670.9</ele>
        <time>2020-12-06T14:38:21Z</time>
      </trkpt>
      <trkpt lat="46.72791" lon="5.96146">
        <ele>671.4</ele>
        <time>2020-12-06T14:38:26Z</time>
      </trkpt>
      <trkpt lat="46.72795" lon="5.9615">
        <ele>672.1</ele>
        <time>2020-12-06T14:38:31Z</time>
      </trkpt>
      <trkpt lat="46.72799" lon="5.96155">
        <ele>672.9</ele>
        <time>2020-12-06T14:38:36Z</time>
      </trkpt>
      <trkpt lat="46.72802" lon="5.96161">
        <ele>674.2</ele>
        <time>2020-12-06T14:38:43Z</time>
      </trkpt>
      <trkpt lat="46.72805" lon="5.96166">
        <ele>675.1</ele>
        <time>2020-12-06T14:38:49Z</time>
      </trkpt>
      <trkpt lat="46.72808" lon="5.96171">
        <ele>675.6</ele>
        <time>2020-12-06T14:38:54Z</time>
      </trkpt>
      <trkpt lat="46.72812" lon="5.96175">
        <ele>676</ele>
        <time>2020-12-06T14:38:59Z</time>
      </trkpt>
      <trkpt lat="46.72816" lon="5.96178">
        <ele>676.6</ele>
        <time>2020-12-06T14:39:05Z</time>
      </trkpt>
      <trkpt lat="46.72821" lon="5.96182">
        <ele>677.1</ele>
        <time>2020-12-06T14:39:11Z</time>
      </trkpt>
      <trkpt lat="46.72826" lon="5.96184">
        <ele>678</ele>
        <time>2020-12-06T14:39:17Z</time>
      </trkpt>
      <trkpt lat="46.7283" lon="5.96188">
        <ele>678.6</ele>
        <time>2020-12-06T14:39:22Z</time>
      </trkpt>
      <trkpt lat="46.72834" lon="5.96192">
        <ele>679.2</ele>
        <time>2020-12-06T14:39:27Z</time>
      </trkpt>
      <trkpt lat="46.72837" lon="5.96197">
        <ele>680.1</ele>
        <time>2020-12-06T14:39:33Z</time>
      </trkpt>
      <trkpt lat="46.72841" lon="5.96202">
        <ele>680.8</ele>
        <time>2020-12-06T14:39:41Z</time>
      </trkpt>
      <trkpt lat="46.72846" lon="5.96205">
        <ele>681.3</ele>
        <time>2020-12-06T14:39:47Z</time>
      </trkpt>
      <trkpt lat="46.7285" lon="5.9621">
        <ele>681.7</ele>
        <time>2020-12-06T14:39:53Z</time>
      </trkpt>
      <trkpt lat="46.72853" lon="5.96214">
        <ele>682.1</ele>
        <time>2020-12-06T14:39:58Z</time>
      </trkpt>
      <trkpt lat="46.72856" lon="5.9622">
        <ele>682.7</ele>
        <time>2020-12-06T14:40:04Z</time>
      </trkpt>
      <trkpt lat="46.7286" lon="5.96225">
        <ele>683.3</ele>
        <time>2020-12-06T14:40:10Z</time>
      </trkpt>
      <trkpt lat="46.72864" lon="5.96229">
        <ele>683.6</ele>
        <time>2020-12-06T14:40:15Z</time>
      </trkpt>
      <trkpt lat="46.72868" lon="5.96233">
        <ele>684.4</ele>
        <time>2020-12-06T14:40:21Z</time>
      </trkpt>
      <trkpt lat="46.72872" lon="5.96239">
        <ele>685.5</ele>
        <time>2020-12-06T14:40:27Z</time>
      </trkpt>
      <trkpt lat="46.72875" lon="5.96243">
        <ele>686.6</ele>
        <time>2020-12-06T14:40:32Z</time>
      </trkpt>
      <trkpt lat="46.72878" lon="5.96248">
        <ele>687.5</ele>
        <time>2020-12-06T14:40:37Z</time>
      </trkpt>
      <trkpt lat="46.72881" lon="5.96254">
        <ele>688.2</ele>
        <time>2020-12-06T14:40:42Z</time>
      </trkpt>
      <trkpt lat="46.72884" lon="5.96259">
        <ele>688.5</ele>
        <time>2020-12-06T14:40:47Z</time>
      </trkpt>
      <trkpt lat="46.72888" lon="5.96264">
        <ele>688.8</ele>
        <time>2020-12-06T14:40:53Z</time>
      </trkpt>
      <trkpt lat="46.72892" lon="5.96269">
        <ele>689.3</ele>
        <time>2020-12-06T14:40:58Z</time>
      </trkpt>
      <trkpt lat="46.72896" lon="5.96274">
        <ele>689.8</ele>
        <time>2020-12-06T14:41:04Z</time>
      </trkpt>
      <trkpt lat="46.72898" lon="5.9628">
        <ele>690.1</ele>
        <time>2020-12-06T14:41:10Z</time>
      </trkpt>
      <trkpt lat="46.72901" lon="5.96286">
        <ele>690.3</ele>
        <time>2020-12-06T14:41:15Z</time>
      </trkpt>
      <trkpt lat="46.72904" lon="5.96292">
        <ele>690.6</ele>
        <time>2020-12-06T14:41:20Z</time>
      </trkpt>
      <trkpt lat="46.72907" lon="5.96298">
        <ele>691.1</ele>
        <time>2020-12-06T14:41:25Z</time>
      </trkpt>
      <trkpt lat="46.72911" lon="5.96303">
        <ele>691.5</ele>
        <time>2020-12-06T14:41:31Z</time>
      </trkpt>
      <trkpt lat="46.72915" lon="5.96308">
        <ele>691.8</ele>
        <time>2020-12-06T14:41:37Z</time>
      </trkpt>
      <trkpt lat="46.72919" lon="5.96312">
        <ele>691.5</ele>
        <time>2020-12-06T14:41:42Z</time>
      </trkpt>
      <trkpt lat="46.72924" lon="5.96314">
        <ele>691.3</ele>
        <time>2020-12-06T14:41:48Z</time>
      </trkpt>
      <trkpt lat="46.72929" lon="5.96316">
        <ele>690.6</ele>
        <time>2020-12-06T14:41:55Z</time>
      </trkpt>
      <trkpt lat="46.72933" lon="5.96319">
        <ele>689.5</ele>
        <time>2020-12-06T14:42:01Z</time>
      </trkpt>
      <trkpt lat="46.72938" lon="5.96322">
        <ele>689.1</ele>
        <time>2020-12-06T14:42:06Z</time>
      </trkpt>
      <trkpt lat="46.72943" lon="5.96325">
        <ele>689.2</ele>
        <time>2020-12-06T14:42:12Z</time>
      </trkpt>
      <trkpt lat="46.72946" lon="5.9633">
        <ele>690.8</ele>
        <time>2020-12-06T14:42:38Z</time>
      </trkpt>
      <trkpt lat="46.72951" lon="5.96331">
        <ele>690.8</ele>
        <time>2020-12-06T14:43:09Z</time>
      </trkpt>
      <trkpt lat="46.72956" lon="5.96334">
        <ele>691.5</ele>
        <time>2020-12-06T14:43:14Z</time>
      </trkpt>
      <trkpt lat="46.7296" lon="5.96336">
        <ele>692.3</ele>
        <time>2020-12-06T14:43:19Z</time>
      </trkpt>
      <trkpt lat="46.72965" lon="5.96338">
        <ele>693.2</ele>
        <time>2020-12-06T14:43:24Z</time>
      </trkpt>
      <trkpt lat="46.7297" lon="5.96341">
        <ele>694.1</ele>
        <time>2020-12-06T14:43:30Z</time>
      </trkpt>
      <trkpt lat="46.72974" lon="5.96345">
        <ele>695.2</ele>
        <time>2020-12-06T14:43:36Z</time>
      </trkpt>
      <trkpt lat="46.72978" lon="5.96348">
        <ele>696</ele>
        <time>2020-12-06T14:43:42Z</time>
      </trkpt>
      <trkpt lat="46.72983" lon="5.9635">
        <ele>696.6</ele>
        <time>2020-12-06T14:43:47Z</time>
      </trkpt>
      <trkpt lat="46.72988" lon="5.96352">
        <ele>697.5</ele>
        <time>2020-12-06T14:43:53Z</time>
      </trkpt>
      <trkpt lat="46.72993" lon="5.96353">
        <ele>698.1</ele>
        <time>2020-12-06T14:43:58Z</time>
      </trkpt>
      <trkpt lat="46.72997" lon="5.96354">
        <ele>698.6</ele>
        <time>2020-12-06T14:44:03Z</time>
      </trkpt>
      <trkpt lat="46.73002" lon="5.96356">
        <ele>699.3</ele>
        <time>2020-12-06T14:44:08Z</time>
      </trkpt>
      <trkpt lat="46.73007" lon="5.96357">
        <ele>700.2</ele>
        <time>2020-12-06T14:44:14Z</time>
      </trkpt>
      <trkpt lat="46.73011" lon="5.96359">
        <ele>700.8</ele>
        <time>2020-12-06T14:44:19Z</time>
      </trkpt>
      <trkpt lat="46.73016" lon="5.96362">
        <ele>701.3</ele>
        <time>2020-12-06T14:44:25Z</time>
      </trkpt>
      <trkpt lat="46.73021" lon="5.96364">
        <ele>701.8</ele>
        <time>2020-12-06T14:44:32Z</time>
      </trkpt>
      <trkpt lat="46.73025" lon="5.96366">
        <ele>702.4</ele>
        <time>2020-12-06T14:44:39Z</time>
      </trkpt>
      <trkpt lat="46.7303" lon="5.96368">
        <ele>703.3</ele>
        <time>2020-12-06T14:44:45Z</time>
      </trkpt>
      <trkpt lat="46.73035" lon="5.96369">
        <ele>704</ele>
        <time>2020-12-06T14:44:51Z</time>
      </trkpt>
      <trkpt lat="46.73039" lon="5.96371">
        <ele>704.7</ele>
        <time>2020-12-06T14:44:57Z</time>
      </trkpt>
      <trkpt lat="46.73044" lon="5.96374">
        <ele>705.2</ele>
        <time>2020-12-06T14:45:03Z</time>
      </trkpt>
      <trkpt lat="46.73049" lon="5.96376">
        <ele>705.5</ele>
        <time>2020-12-06T14:45:08Z</time>
      </trkpt>
      <trkpt lat="46.73053" lon="5.96378">
        <ele>706.1</ele>
        <time>2020-12-06T14:45:14Z</time>
      </trkpt>
      <trkpt lat="46.73058" lon="5.9638">
        <ele>706.7</ele>
        <time>2020-12-06T14:45:21Z</time>
      </trkpt>
      <trkpt lat="46.73064" lon="5.9638">
        <ele>707.2</ele>
        <time>2020-12-06T14:45:27Z</time>
      </trkpt>
      <trkpt lat="46.73067" lon="5.96376">
        <ele>707.8</ele>
        <time>2020-12-06T14:45:38Z</time>
      </trkpt>
      <trkpt lat="46.73071" lon="5.96372">
        <ele>710.3</ele>
        <time>2020-12-06T14:48:50Z</time>
      </trkpt>
      <trkpt lat="46.73077" lon="5.96369">
        <ele>709.6</ele>
        <time>2020-12-06T14:50:11Z</time>
      </trkpt>
      <trkpt lat="46.73076" lon="5.96362">
        <ele>709.4</ele>
        <time>2020-12-06T14:50:23Z</time>
      </trkpt>
      <trkpt lat="46.73073" lon="5.96368">
        <ele>710.7</ele>
        <time>2020-12-06T14:51:45Z</time>
      </trkpt>
      <trkpt lat="46.7307" lon="5.96373">
        <ele>710.4</ele>
        <time>2020-12-06T14:51:51Z</time>
      </trkpt>
      <trkpt lat="46.73066" lon="5.96376">
        <ele>709.9</ele>
        <time>2020-12-06T14:52:01Z</time>
      </trkpt>
      <trkpt lat="46.7307" lon="5.9638">
        <ele>709.5</ele>
        <time>2020-12-06T14:52:11Z</time>
      </trkpt>
      <trkpt lat="46.73075" lon="5.96383">
        <ele>709.3</ele>
        <time>2020-12-06T14:52:17Z</time>
      </trkpt>
      <trkpt lat="46.73079" lon="5.96387">
        <ele>709.1</ele>
        <time>2020-12-06T14:52:24Z</time>
      </trkpt>
      <trkpt lat="46.73083" lon="5.96391">
        <ele>709.5</ele>
        <time>2020-12-06T14:52:31Z</time>
      </trkpt>
      <trkpt lat="46.73087" lon="5.96394">
        <ele>710.3</ele>
        <time>2020-12-06T14:52:38Z</time>
      </trkpt>
      <trkpt lat="46.73092" lon="5.96395">
        <ele>711</ele>
        <time>2020-12-06T14:52:44Z</time>
      </trkpt>
      <trkpt lat="46.73097" lon="5.96394">
        <ele>711.9</ele>
        <time>2020-12-06T14:52:51Z</time>
      </trkpt>
      <trkpt lat="46.73101" lon="5.96392">
        <ele>712.6</ele>
        <time>2020-12-06T14:52:57Z</time>
      </trkpt>
      <trkpt lat="46.73105" lon="5.96387">
        <ele>713.4</ele>
        <time>2020-12-06T14:53:04Z</time>
      </trkpt>
      <trkpt lat="46.7311" lon="5.96383">
        <ele>713.6</ele>
        <time>2020-12-06T14:53:11Z</time>
      </trkpt>
      <trkpt lat="46.73114" lon="5.96382">
        <ele>713.6</ele>
        <time>2020-12-06T14:53:17Z</time>
      </trkpt>
      <trkpt lat="46.73119" lon="5.96383">
        <ele>713.5</ele>
        <time>2020-12-06T14:53:27Z</time>
      </trkpt>
      <trkpt lat="46.73124" lon="5.96386">
        <ele>713.9</ele>
        <time>2020-12-06T14:53:33Z</time>
      </trkpt>
      <trkpt lat="46.73128" lon="5.96387">
        <ele>714.1</ele>
        <time>2020-12-06T14:53:38Z</time>
      </trkpt>
      <trkpt lat="46.73133" lon="5.96388">
        <ele>714.4</ele>
        <time>2020-12-06T14:53:45Z</time>
      </trkpt>
      <trkpt lat="46.73137" lon="5.96388">
        <ele>715.8</ele>
        <time>2020-12-06T14:54:11Z</time>
      </trkpt>
      <trkpt lat="46.73142" lon="5.96388">
        <ele>716.1</ele>
        <time>2020-12-06T14:54:29Z</time>
      </trkpt>
      <trkpt lat="46.73147" lon="5.96389">
        <ele>716</ele>
        <time>2020-12-06T14:54:36Z</time>
      </trkpt>
      <trkpt lat="46.73152" lon="5.9639">
        <ele>716.3</ele>
        <time>2020-12-06T14:54:44Z</time>
      </trkpt>
      <trkpt lat="46.73156" lon="5.96388">
        <ele>715.9</ele>
        <time>2020-12-06T14:54:53Z</time>
      </trkpt>
      <trkpt lat="46.73163" lon="5.96391">
        <ele>715.9</ele>
        <time>2020-12-06T14:54:58Z</time>
      </trkpt>
      <trkpt lat="46.73167" lon="5.96396">
        <ele>717</ele>
        <time>2020-12-06T14:55:03Z</time>
      </trkpt>
      <trkpt lat="46.73171" lon="5.96392">
        <ele>717.3</ele>
        <time>2020-12-06T14:55:14Z</time>
      </trkpt>
      <trkpt lat="46.73174" lon="5.96385">
        <ele>717.1</ele>
        <time>2020-12-06T14:55:20Z</time>
      </trkpt>
      <trkpt lat="46.73178" lon="5.96386">
        <ele>717</ele>
        <time>2020-12-06T14:55:28Z</time>
      </trkpt>
      <trkpt lat="46.73182" lon="5.96389">
        <ele>716.7</ele>
        <time>2020-12-06T14:55:34Z</time>
      </trkpt>
      <trkpt lat="46.73187" lon="5.96393">
        <ele>716.4</ele>
        <time>2020-12-06T14:55:41Z</time>
      </trkpt>
      <trkpt lat="46.73191" lon="5.96396">
        <ele>716</ele>
        <time>2020-12-06T14:55:47Z</time>
      </trkpt>
      <trkpt lat="46.73196" lon="5.96396">
        <ele>716</ele>
        <time>2020-12-06T14:55:54Z</time>
      </trkpt>
      <trkpt lat="46.73201" lon="5.96396">
        <ele>716.2</ele>
        <time>2020-12-06T14:56:01Z</time>
      </trkpt>
      <trkpt lat="46.73206" lon="5.96398">
        <ele>716.5</ele>
        <time>2020-12-06T14:56:08Z</time>
      </trkpt>
      <trkpt lat="46.73211" lon="5.964">
        <ele>716.1</ele>
        <time>2020-12-06T14:56:13Z</time>
      </trkpt>
      <trkpt lat="46.73215" lon="5.96402">
        <ele>715.8</ele>
        <time>2020-12-06T14:56:18Z</time>
      </trkpt>
      <trkpt lat="46.73219" lon="5.96406">
        <ele>715.5</ele>
        <time>2020-12-06T14:56:25Z</time>
      </trkpt>
      <trkpt lat="46.73221" lon="5.96412">
        <ele>713</ele>
        <time>2020-12-06T14:57:03Z</time>
      </trkpt>
      <trkpt lat="46.7322" lon="5.96419">
        <ele>711.8</ele>
        <time>2020-12-06T14:57:11Z</time>
      </trkpt>
      <trkpt lat="46.7322" lon="5.96426">
        <ele>711.3</ele>
        <time>2020-12-06T14:57:18Z</time>
      </trkpt>
      <trkpt lat="46.73218" lon="5.96432">
        <ele>711.7</ele>
        <time>2020-12-06T14:57:43Z</time>
      </trkpt>
      <trkpt lat="46.73217" lon="5.96438">
        <ele>711.3</ele>
        <time>2020-12-06T14:57:50Z</time>
      </trkpt>
      <trkpt lat="46.73216" lon="5.96445">
        <ele>709.8</ele>
        <time>2020-12-06T14:58:00Z</time>
      </trkpt>
      <trkpt lat="46.73216" lon="5.96451">
        <ele>708.1</ele>
        <time>2020-12-06T14:58:12Z</time>
      </trkpt>
      <trkpt lat="46.73221" lon="5.96454">
        <ele>706.7</ele>
        <time>2020-12-06T14:58:23Z</time>
      </trkpt>
      <trkpt lat="46.73226" lon="5.96455">
        <ele>706</ele>
        <time>2020-12-06T14:58:29Z</time>
      </trkpt>
      <trkpt lat="46.7323" lon="5.96458">
        <ele>704.6</ele>
        <time>2020-12-06T14:58:46Z</time>
      </trkpt>
      <trkpt lat="46.73235" lon="5.9646">
        <ele>703.6</ele>
        <time>2020-12-06T14:58:54Z</time>
      </trkpt>
      <trkpt lat="46.73239" lon="5.96463">
        <ele>702.4</ele>
        <time>2020-12-06T14:59:02Z</time>
      </trkpt>
      <trkpt lat="46.73244" lon="5.96464">
        <ele>701.4</ele>
        <time>2020-12-06T14:59:08Z</time>
      </trkpt>
      <trkpt lat="46.73248" lon="5.96468">
        <ele>700</ele>
        <time>2020-12-06T14:59:15Z</time>
      </trkpt>
      <trkpt lat="46.73253" lon="5.9647">
        <ele>699.2</ele>
        <time>2020-12-06T14:59:20Z</time>
      </trkpt>
      <trkpt lat="46.73258" lon="5.96472">
        <ele>698.6</ele>
        <time>2020-12-06T14:59:25Z</time>
      </trkpt>
      <trkpt lat="46.73263" lon="5.96472">
        <ele>698.1</ele>
        <time>2020-12-06T14:59:30Z</time>
      </trkpt>
      <trkpt lat="46.73267" lon="5.96473">
        <ele>697.6</ele>
        <time>2020-12-06T14:59:36Z</time>
      </trkpt>
      <trkpt lat="46.73272" lon="5.96475">
        <ele>697.2</ele>
        <time>2020-12-06T14:59:41Z</time>
      </trkpt>
      <trkpt lat="46.73278" lon="5.96479">
        <ele>697</ele>
        <time>2020-12-06T14:59:46Z</time>
      </trkpt>
      <trkpt lat="46.73283" lon="5.96482">
        <ele>697.2</ele>
        <time>2020-12-06T14:59:51Z</time>
      </trkpt>
      <trkpt lat="46.73287" lon="5.96485">
        <ele>697.6</ele>
        <time>2020-12-06T14:59:56Z</time>
      </trkpt>
      <trkpt lat="46.73292" lon="5.96488">
        <ele>697.6</ele>
        <time>2020-12-06T15:00:02Z</time>
      </trkpt>
      <trkpt lat="46.73296" lon="5.96491">
        <ele>697.7</ele>
        <time>2020-12-06T15:00:08Z</time>
      </trkpt>
      <trkpt lat="46.733" lon="5.96494">
        <ele>697.6</ele>
        <time>2020-12-06T15:00:14Z</time>
      </trkpt>
      <trkpt lat="46.73305" lon="5.96498">
        <ele>697.5</ele>
        <time>2020-12-06T15:00:19Z</time>
      </trkpt>
      <trkpt lat="46.73309" lon="5.96501">
        <ele>697.3</ele>
        <time>2020-12-06T15:00:24Z</time>
      </trkpt>
      <trkpt lat="46.73313" lon="5.96506">
        <ele>697.2</ele>
        <time>2020-12-06T15:00:30Z</time>
      </trkpt>
      <trkpt lat="46.73316" lon="5.96511">
        <ele>697.3</ele>
        <time>2020-12-06T15:00:36Z</time>
      </trkpt>
      <trkpt lat="46.7332" lon="5.96515">
        <ele>697.3</ele>
        <time>2020-12-06T15:00:43Z</time>
      </trkpt>
      <trkpt lat="46.73325" lon="5.96518">
        <ele>697.3</ele>
        <time>2020-12-06T15:00:50Z</time>
      </trkpt>
      <trkpt lat="46.73328" lon="5.96523">
        <ele>697.3</ele>
        <time>2020-12-06T15:00:57Z</time>
      </trkpt>
      <trkpt lat="46.73333" lon="5.96527">
        <ele>697.4</ele>
        <time>2020-12-06T15:01:04Z</time>
      </trkpt>
      <trkpt lat="46.73337" lon="5.96532">
        <ele>697.7</ele>
        <time>2020-12-06T15:01:10Z</time>
      </trkpt>
      <trkpt lat="46.73342" lon="5.96533">
        <ele>699.7</ele>
        <time>2020-12-06T15:01:17Z</time>
      </trkpt>
      <trkpt lat="46.73347" lon="5.96535">
        <ele>702.7</ele>
        <time>2020-12-06T15:01:24Z</time>
      </trkpt>
      <trkpt lat="46.73353" lon="5.96538">
        <ele>707</ele>
        <time>2020-12-06T15:02:23Z</time>
      </trkpt>
      <trkpt lat="46.7336" lon="5.9654">
        <ele>708.7</ele>
        <time>2020-12-06T15:02:28Z</time>
      </trkpt>
      <trkpt lat="46.73364" lon="5.96541">
        <ele>710.1</ele>
        <time>2020-12-06T15:02:33Z</time>
      </trkpt>
      <trkpt lat="46.73368" lon="5.96546">
        <ele>711.9</ele>
        <time>2020-12-06T15:02:40Z</time>
      </trkpt>
      <trkpt lat="46.73372" lon="5.9655">
        <ele>714.1</ele>
        <time>2020-12-06T15:02:48Z</time>
      </trkpt>
      <trkpt lat="46.73377" lon="5.96555">
        <ele>716.3</ele>
        <time>2020-12-06T15:02:56Z</time>
      </trkpt>
      <trkpt lat="46.73381" lon="5.96558">
        <ele>718.4</ele>
        <time>2020-12-06T15:03:03Z</time>
      </trkpt>
      <trkpt lat="46.73385" lon="5.96562">
        <ele>720.3</ele>
        <time>2020-12-06T15:03:11Z</time>
      </trkpt>
      <trkpt lat="46.73389" lon="5.96565">
        <ele>721.6</ele>
        <time>2020-12-06T15:03:22Z</time>
      </trkpt>
      <trkpt lat="46.73394" lon="5.96568">
        <ele>721.9</ele>
        <time>2020-12-06T15:03:31Z</time>
      </trkpt>
      <trkpt lat="46.73398" lon="5.96573">
        <ele>722.2</ele>
        <time>2020-12-06T15:03:38Z</time>
      </trkpt>
      <trkpt lat="46.73402" lon="5.96577">
        <ele>722.9</ele>
        <time>2020-12-06T15:03:46Z</time>
      </trkpt>
      <trkpt lat="46.73405" lon="5.9658">
        <ele>723.6</ele>
        <time>2020-12-06T15:03:54Z</time>
      </trkpt>
      <trkpt lat="46.7341" lon="5.96583">
        <ele>724.2</ele>
        <time>2020-12-06T15:04:00Z</time>
      </trkpt>
      <trkpt lat="46.73413" lon="5.96586">
        <ele>725.2</ele>
        <time>2020-12-06T15:04:08Z</time>
      </trkpt>
      <trkpt lat="46.73418" lon="5.9659">
        <ele>726</ele>
        <time>2020-12-06T15:04:14Z</time>
      </trkpt>
      <trkpt lat="46.73422" lon="5.96594">
        <ele>727.2</ele>
        <time>2020-12-06T15:04:22Z</time>
      </trkpt>
      <trkpt lat="46.73426" lon="5.96597">
        <ele>728.7</ele>
        <time>2020-12-06T15:04:30Z</time>
      </trkpt>
      <trkpt lat="46.7343" lon="5.96601">
        <ele>729.5</ele>
        <time>2020-12-06T15:04:36Z</time>
      </trkpt>
      <trkpt lat="46.73434" lon="5.96605">
        <ele>731</ele>
        <time>2020-12-06T15:04:44Z</time>
      </trkpt>
      <trkpt lat="46.73438" lon="5.96608">
        <ele>734.5</ele>
        <time>2020-12-06T15:05:30Z</time>
      </trkpt>
      <trkpt lat="46.73442" lon="5.96613">
        <ele>735.7</ele>
        <time>2020-12-06T15:05:39Z</time>
      </trkpt>
      <trkpt lat="46.73445" lon="5.96618">
        <ele>736.3</ele>
        <time>2020-12-06T15:05:45Z</time>
      </trkpt>
      <trkpt lat="46.73449" lon="5.96622">
        <ele>736.8</ele>
        <time>2020-12-06T15:05:51Z</time>
      </trkpt>
      <trkpt lat="46.73454" lon="5.96625">
        <ele>737.3</ele>
        <time>2020-12-06T15:05:58Z</time>
      </trkpt>
      <trkpt lat="46.73458" lon="5.96628">
        <ele>737.7</ele>
        <time>2020-12-06T15:06:04Z</time>
      </trkpt>
      <trkpt lat="46.73463" lon="5.9663">
        <ele>738</ele>
        <time>2020-12-06T15:06:10Z</time>
      </trkpt>
      <trkpt lat="46.73467" lon="5.96629">
        <ele>738.4</ele>
        <time>2020-12-06T15:06:16Z</time>
      </trkpt>
      <trkpt lat="46.73472" lon="5.9663">
        <ele>738.9</ele>
        <time>2020-12-06T15:06:22Z</time>
      </trkpt>
      <trkpt lat="46.73476" lon="5.96634">
        <ele>739.8</ele>
        <time>2020-12-06T15:06:29Z</time>
      </trkpt>
      <trkpt lat="46.73481" lon="5.96637">
        <ele>740.7</ele>
        <time>2020-12-06T15:06:37Z</time>
      </trkpt>
      <trkpt lat="46.73485" lon="5.96638">
        <ele>741.4</ele>
        <time>2020-12-06T15:06:43Z</time>
      </trkpt>
      <trkpt lat="46.7349" lon="5.96641">
        <ele>742</ele>
        <time>2020-12-06T15:06:50Z</time>
      </trkpt>
      <trkpt lat="46.73494" lon="5.96646">
        <ele>742.5</ele>
        <time>2020-12-06T15:06:57Z</time>
      </trkpt>
      <trkpt lat="46.73497" lon="5.96651">
        <ele>743.2</ele>
        <time>2020-12-06T15:07:05Z</time>
      </trkpt>
      <trkpt lat="46.735" lon="5.96656">
        <ele>744.6</ele>
        <time>2020-12-06T15:07:15Z</time>
      </trkpt>
      <trkpt lat="46.73504" lon="5.96661">
        <ele>745.5</ele>
        <time>2020-12-06T15:07:23Z</time>
      </trkpt>
      <trkpt lat="46.73508" lon="5.96665">
        <ele>746.7</ele>
        <time>2020-12-06T15:07:32Z</time>
      </trkpt>
      <trkpt lat="46.73512" lon="5.96665">
        <ele>747.4</ele>
        <time>2020-12-06T15:07:40Z</time>
      </trkpt>
      <trkpt lat="46.73517" lon="5.96665">
        <ele>747.9</ele>
        <time>2020-12-06T15:07:47Z</time>
      </trkpt>
      <trkpt lat="46.73522" lon="5.96666">
        <ele>748.4</ele>
        <time>2020-12-06T15:07:52Z</time>
      </trkpt>
      <trkpt lat="46.73527" lon="5.9667">
        <ele>749.7</ele>
        <time>2020-12-06T15:07:57Z</time>
      </trkpt>
      <trkpt lat="46.7353" lon="5.96675">
        <ele>751.5</ele>
        <time>2020-12-06T15:08:04Z</time>
      </trkpt>
      <trkpt lat="46.73535" lon="5.96674">
        <ele>759.9</ele>
        <time>2020-12-06T15:11:00Z</time>
      </trkpt>
      <trkpt lat="46.73531" lon="5.96676">
        <ele>757.7</ele>
        <time>2020-12-06T15:11:30Z</time>
      </trkpt>
      <trkpt lat="46.73535" lon="5.96676">
        <ele>756.4</ele>
        <time>2020-12-06T15:13:33Z</time>
      </trkpt>
      <trkpt lat="46.73533" lon="5.96669">
        <ele>755</ele>
        <time>2020-12-06T15:14:47Z</time>
      </trkpt>
      <trkpt lat="46.73529" lon="5.9667">
        <ele>755.6</ele>
        <time>2020-12-06T15:15:01Z</time>
      </trkpt>
      <trkpt lat="46.73525" lon="5.96671">
        <ele>756.4</ele>
        <time>2020-12-06T15:15:35Z</time>
      </trkpt>
      <trkpt lat="46.7352" lon="5.96668">
        <ele>756.6</ele>
        <time>2020-12-06T15:15:44Z</time>
      </trkpt>
      <trkpt lat="46.73515" lon="5.96668">
        <ele>757.1</ele>
        <time>2020-12-06T15:15:49Z</time>
      </trkpt>
      <trkpt lat="46.7351" lon="5.96668">
        <ele>758</ele>
        <time>2020-12-06T15:15:55Z</time>
      </trkpt>
      <trkpt lat="46.73506" lon="5.96665">
        <ele>758.5</ele>
        <time>2020-12-06T15:16:00Z</time>
      </trkpt>
      <trkpt lat="46.73502" lon="5.96661">
        <ele>758.5</ele>
        <time>2020-12-06T15:16:06Z</time>
      </trkpt>
      <trkpt lat="46.73498" lon="5.96656">
        <ele>757.9</ele>
        <time>2020-12-06T15:16:13Z</time>
      </trkpt>
      <trkpt lat="46.73494" lon="5.96651">
        <ele>757.2</ele>
        <time>2020-12-06T15:16:21Z</time>
      </trkpt>
      <trkpt lat="46.7349" lon="5.96648">
        <ele>756.2</ele>
        <time>2020-12-06T15:16:29Z</time>
      </trkpt>
      <trkpt lat="46.73485" lon="5.96645">
        <ele>755.3</ele>
        <time>2020-12-06T15:16:35Z</time>
      </trkpt>
      <trkpt lat="46.73481" lon="5.96642">
        <ele>754.4</ele>
        <time>2020-12-06T15:16:42Z</time>
      </trkpt>
      <trkpt lat="46.73478" lon="5.96636">
        <ele>753.2</ele>
        <time>2020-12-06T15:16:52Z</time>
      </trkpt>
      <trkpt lat="46.73474" lon="5.96631">
        <ele>752.6</ele>
        <time>2020-12-06T15:16:59Z</time>
      </trkpt>
      <trkpt lat="46.7347" lon="5.96629">
        <ele>751.6</ele>
        <time>2020-12-06T15:17:08Z</time>
      </trkpt>
      <trkpt lat="46.73465" lon="5.96629">
        <ele>750.9</ele>
        <time>2020-12-06T15:17:17Z</time>
      </trkpt>
      <trkpt lat="46.7346" lon="5.96627">
        <ele>749.7</ele>
        <time>2020-12-06T15:17:26Z</time>
      </trkpt>
      <trkpt lat="46.73456" lon="5.96625">
        <ele>748.8</ele>
        <time>2020-12-06T15:17:32Z</time>
      </trkpt>
      <trkpt lat="46.73453" lon="5.96619">
        <ele>747.6</ele>
        <time>2020-12-06T15:17:40Z</time>
      </trkpt>
      <trkpt lat="46.73446" lon="5.96616">
        <ele>745.6</ele>
        <time>2020-12-06T15:17:45Z</time>
      </trkpt>
      <trkpt lat="46.73438" lon="5.96612">
        <ele>741.9</ele>
        <time>2020-12-06T15:17:50Z</time>
      </trkpt>
      <trkpt lat="46.73434" lon="5.96607">
        <ele>739.5</ele>
        <time>2020-12-06T15:17:56Z</time>
      </trkpt>
      <trkpt lat="46.73431" lon="5.96603">
        <ele>736.5</ele>
        <time>2020-12-06T15:18:03Z</time>
      </trkpt>
      <trkpt lat="46.73427" lon="5.96599">
        <ele>734.1</ele>
        <time>2020-12-06T15:18:14Z</time>
      </trkpt>
      <trkpt lat="46.73422" lon="5.96595">
        <ele>733.4</ele>
        <time>2020-12-06T15:18:22Z</time>
      </trkpt>
      <trkpt lat="46.73418" lon="5.96591">
        <ele>733.1</ele>
        <time>2020-12-06T15:18:31Z</time>
      </trkpt>
      <trkpt lat="46.73414" lon="5.96587">
        <ele>733.4</ele>
        <time>2020-12-06T15:18:36Z</time>
      </trkpt>
      <trkpt lat="46.7341" lon="5.96583">
        <ele>733.7</ele>
        <time>2020-12-06T15:18:41Z</time>
      </trkpt>
      <trkpt lat="46.73406" lon="5.96579">
        <ele>734.2</ele>
        <time>2020-12-06T15:18:47Z</time>
      </trkpt>
      <trkpt lat="46.73402" lon="5.96574">
        <ele>734.6</ele>
        <time>2020-12-06T15:18:56Z</time>
      </trkpt>
      <trkpt lat="46.73397" lon="5.96572">
        <ele>734.1</ele>
        <time>2020-12-06T15:19:04Z</time>
      </trkpt>
      <trkpt lat="46.73393" lon="5.9657">
        <ele>732.6</ele>
        <time>2020-12-06T15:19:15Z</time>
      </trkpt>
      <trkpt lat="46.73388" lon="5.96566">
        <ele>731.4</ele>
        <time>2020-12-06T15:19:22Z</time>
      </trkpt>
      <trkpt lat="46.73384" lon="5.96565">
        <ele>730.3</ele>
        <time>2020-12-06T15:19:27Z</time>
      </trkpt>
      <trkpt lat="46.73379" lon="5.96562">
        <ele>729.1</ele>
        <time>2020-12-06T15:19:32Z</time>
      </trkpt>
      <trkpt lat="46.73375" lon="5.96558">
        <ele>727.4</ele>
        <time>2020-12-06T15:19:39Z</time>
      </trkpt>
      <trkpt lat="46.73371" lon="5.96553">
        <ele>725.4</ele>
        <time>2020-12-06T15:19:48Z</time>
      </trkpt>
      <trkpt lat="46.73368" lon="5.96547">
        <ele>722.8</ele>
        <time>2020-12-06T15:19:57Z</time>
      </trkpt>
      <trkpt lat="46.73364" lon="5.96542">
        <ele>720.9</ele>
        <time>2020-12-06T15:20:04Z</time>
      </trkpt>
      <trkpt lat="46.7336" lon="5.96539">
        <ele>718.5</ele>
        <time>2020-12-06T15:20:13Z</time>
      </trkpt>
      <trkpt lat="46.73356" lon="5.96536">
        <ele>716.9</ele>
        <time>2020-12-06T15:20:20Z</time>
      </trkpt>
      <trkpt lat="46.73351" lon="5.96535">
        <ele>715.7</ele>
        <time>2020-12-06T15:20:26Z</time>
      </trkpt>
      <trkpt lat="46.73347" lon="5.96531">
        <ele>714</ele>
        <time>2020-12-06T15:20:33Z</time>
      </trkpt>
      <trkpt lat="46.73343" lon="5.96527">
        <ele>711.9</ele>
        <time>2020-12-06T15:20:40Z</time>
      </trkpt>
      <trkpt lat="46.73338" lon="5.96523">
        <ele>710.1</ele>
        <time>2020-12-06T15:20:46Z</time>
      </trkpt>
      <trkpt lat="46.73334" lon="5.96519">
        <ele>708</ele>
        <time>2020-12-06T15:20:54Z</time>
      </trkpt>
      <trkpt lat="46.7333" lon="5.96515">
        <ele>706.2</ele>
        <time>2020-12-06T15:21:01Z</time>
      </trkpt>
      <trkpt lat="46.73326" lon="5.96511">
        <ele>704.2</ele>
        <time>2020-12-06T15:21:08Z</time>
      </trkpt>
      <trkpt lat="46.73322" lon="5.96508">
        <ele>702.3</ele>
        <time>2020-12-06T15:21:15Z</time>
      </trkpt>
      <trkpt lat="46.73317" lon="5.96508">
        <ele>701.5</ele>
        <time>2020-12-06T15:21:20Z</time>
      </trkpt>
      <trkpt lat="46.73312" lon="5.96507">
        <ele>701.6</ele>
        <time>2020-12-06T15:21:25Z</time>
      </trkpt>
      <trkpt lat="46.73308" lon="5.96502">
        <ele>701.4</ele>
        <time>2020-12-06T15:21:31Z</time>
      </trkpt>
      <trkpt lat="46.73306" lon="5.96496">
        <ele>700.9</ele>
        <time>2020-12-06T15:21:37Z</time>
      </trkpt>
      <trkpt lat="46.73302" lon="5.96491">
        <ele>700</ele>
        <time>2020-12-06T15:21:45Z</time>
      </trkpt>
      <trkpt lat="46.73298" lon="5.96486">
        <ele>698.8</ele>
        <time>2020-12-06T15:21:53Z</time>
      </trkpt>
      <trkpt lat="46.73294" lon="5.96484">
        <ele>698.4</ele>
        <time>2020-12-06T15:21:58Z</time>
      </trkpt>
      <trkpt lat="46.73289" lon="5.96481">
        <ele>698</ele>
        <time>2020-12-06T15:22:04Z</time>
      </trkpt>
      <trkpt lat="46.73285" lon="5.96478">
        <ele>697.5</ele>
        <time>2020-12-06T15:22:10Z</time>
      </trkpt>
      <trkpt lat="46.7328" lon="5.96475">
        <ele>696.6</ele>
        <time>2020-12-06T15:22:17Z</time>
      </trkpt>
      <trkpt lat="46.73276" lon="5.96473">
        <ele>696.3</ele>
        <time>2020-12-06T15:22:22Z</time>
      </trkpt>
      <trkpt lat="46.73271" lon="5.96473">
        <ele>696.4</ele>
        <time>2020-12-06T15:22:27Z</time>
      </trkpt>
      <trkpt lat="46.73266" lon="5.96473">
        <ele>696</ele>
        <time>2020-12-06T15:22:33Z</time>
      </trkpt>
      <trkpt lat="46.73261" lon="5.96472">
        <ele>695.5</ele>
        <time>2020-12-06T15:22:38Z</time>
      </trkpt>
      <trkpt lat="46.73256" lon="5.96471">
        <ele>694.6</ele>
        <time>2020-12-06T15:22:46Z</time>
      </trkpt>
      <trkpt lat="46.73249" lon="5.96469">
        <ele>694.1</ele>
        <time>2020-12-06T15:22:54Z</time>
      </trkpt>
      <trkpt lat="46.73244" lon="5.96468">
        <ele>694</ele>
        <time>2020-12-06T15:22:59Z</time>
      </trkpt>
      <trkpt lat="46.73239" lon="5.96465">
        <ele>693.5</ele>
        <time>2020-12-06T15:23:06Z</time>
      </trkpt>
      <trkpt lat="46.73235" lon="5.96461">
        <ele>693</ele>
        <time>2020-12-06T15:23:11Z</time>
      </trkpt>
      <trkpt lat="46.73227" lon="5.96459">
        <ele>693.3</ele>
        <time>2020-12-06T15:23:16Z</time>
      </trkpt>
      <trkpt lat="46.73224" lon="5.96455">
        <ele>693.3</ele>
        <time>2020-12-06T15:23:22Z</time>
      </trkpt>
      <trkpt lat="46.73218" lon="5.96453">
        <ele>694.5</ele>
        <time>2020-12-06T15:23:28Z</time>
      </trkpt>
      <trkpt lat="46.73216" lon="5.96447">
        <ele>695.8</ele>
        <time>2020-12-06T15:23:37Z</time>
      </trkpt>
      <trkpt lat="46.73213" lon="5.96441">
        <ele>695.7</ele>
        <time>2020-12-06T15:23:46Z</time>
      </trkpt>
      <trkpt lat="46.73214" lon="5.96434">
        <ele>696.8</ele>
        <time>2020-12-06T15:23:53Z</time>
      </trkpt>
      <trkpt lat="46.73216" lon="5.96425">
        <ele>698.4</ele>
        <time>2020-12-06T15:23:58Z</time>
      </trkpt>
      <trkpt lat="46.73211" lon="5.96422">
        <ele>703.8</ele>
        <time>2020-12-06T15:25:21Z</time>
      </trkpt>
      <trkpt lat="46.73208" lon="5.96415">
        <ele>706.9</ele>
        <time>2020-12-06T15:25:44Z</time>
      </trkpt>
      <trkpt lat="46.73212" lon="5.9642">
        <ele>708.7</ele>
        <time>2020-12-06T15:25:59Z</time>
      </trkpt>
      <trkpt lat="46.73216" lon="5.9642">
        <ele>708.9</ele>
        <time>2020-12-06T15:26:05Z</time>
      </trkpt>
      <trkpt lat="46.73215" lon="5.96414">
        <ele>709.2</ele>
        <time>2020-12-06T15:26:24Z</time>
      </trkpt>
      <trkpt lat="46.73211" lon="5.9641">
        <ele>709.8</ele>
        <time>2020-12-06T15:26:33Z</time>
      </trkpt>
      <trkpt lat="46.73206" lon="5.96408">
        <ele>709.3</ele>
        <time>2020-12-06T15:26:38Z</time>
      </trkpt>
      <trkpt lat="46.73202" lon="5.96405">
        <ele>708.5</ele>
        <time>2020-12-06T15:26:43Z</time>
      </trkpt>
      <trkpt lat="46.73198" lon="5.96406">
        <ele>706.1</ele>
        <time>2020-12-06T15:27:05Z</time>
      </trkpt>
      <trkpt lat="46.73193" lon="5.96409">
        <ele>705.7</ele>
        <time>2020-12-06T15:27:36Z</time>
      </trkpt>
      <trkpt lat="46.73189" lon="5.96405">
        <ele>706.1</ele>
        <time>2020-12-06T15:27:43Z</time>
      </trkpt>
      <trkpt lat="46.73185" lon="5.96402">
        <ele>705.8</ele>
        <time>2020-12-06T15:27:50Z</time>
      </trkpt>
      <trkpt lat="46.7318" lon="5.96399">
        <ele>705.1</ele>
        <time>2020-12-06T15:27:55Z</time>
      </trkpt>
      <trkpt lat="46.73175" lon="5.96397">
        <ele>705.1</ele>
        <time>2020-12-06T15:28:01Z</time>
      </trkpt>
      <trkpt lat="46.73171" lon="5.96394">
        <ele>705.4</ele>
        <time>2020-12-06T15:28:06Z</time>
      </trkpt>
      <trkpt lat="46.73167" lon="5.96391">
        <ele>706.8</ele>
        <time>2020-12-06T15:28:12Z</time>
      </trkpt>
      <trkpt lat="46.73162" lon="5.96392">
        <ele>709.4</ele>
        <time>2020-12-06T15:28:28Z</time>
      </trkpt>
      <trkpt lat="46.73158" lon="5.96392">
        <ele>709.8</ele>
        <time>2020-12-06T15:28:38Z</time>
      </trkpt>
      <trkpt lat="46.73153" lon="5.96393">
        <ele>710.3</ele>
        <time>2020-12-06T15:28:47Z</time>
      </trkpt>
      <trkpt lat="46.73146" lon="5.96393">
        <ele>711.2</ele>
        <time>2020-12-06T15:28:52Z</time>
      </trkpt>
      <trkpt lat="46.73142" lon="5.96389">
        <ele>712.4</ele>
        <time>2020-12-06T15:29:00Z</time>
      </trkpt>
      <trkpt lat="46.73138" lon="5.96385">
        <ele>713.4</ele>
        <time>2020-12-06T15:29:06Z</time>
      </trkpt>
      <trkpt lat="46.73134" lon="5.96381">
        <ele>714</ele>
        <time>2020-12-06T15:29:12Z</time>
      </trkpt>
      <trkpt lat="46.7313" lon="5.96377">
        <ele>714.4</ele>
        <time>2020-12-06T15:29:18Z</time>
      </trkpt>
      <trkpt lat="46.73129" lon="5.9637">
        <ele>715.6</ele>
        <time>2020-12-06T15:29:26Z</time>
      </trkpt>
      <trkpt lat="46.73129" lon="5.96377">
        <ele>715.1</ele>
        <time>2020-12-06T15:29:47Z</time>
      </trkpt>
      <trkpt lat="46.73125" lon="5.9638">
        <ele>714.7</ele>
        <time>2020-12-06T15:29:54Z</time>
      </trkpt>
      <trkpt lat="46.7312" lon="5.96377">
        <ele>714</ele>
        <time>2020-12-06T15:30:00Z</time>
      </trkpt>
      <trkpt lat="46.73115" lon="5.96379">
        <ele>712.9</ele>
        <time>2020-12-06T15:30:07Z</time>
      </trkpt>
      <trkpt lat="46.73111" lon="5.96383">
        <ele>712.5</ele>
        <time>2020-12-06T15:30:12Z</time>
      </trkpt>
      <trkpt lat="46.73108" lon="5.96388">
        <ele>712.3</ele>
        <time>2020-12-06T15:30:17Z</time>
      </trkpt>
      <trkpt lat="46.73103" lon="5.96391">
        <ele>711.4</ele>
        <time>2020-12-06T15:30:28Z</time>
      </trkpt>
      <trkpt lat="46.73099" lon="5.96391">
        <ele>710.5</ele>
        <time>2020-12-06T15:30:35Z</time>
      </trkpt>
      <trkpt lat="46.73094" lon="5.96389">
        <ele>709.2</ele>
        <time>2020-12-06T15:30:42Z</time>
      </trkpt>
      <trkpt lat="46.73086" lon="5.96391">
        <ele>708.1</ele>
        <time>2020-12-06T15:30:47Z</time>
      </trkpt>
      <trkpt lat="46.73081" lon="5.96389">
        <ele>707</ele>
        <time>2020-12-06T15:30:52Z</time>
      </trkpt>
      <trkpt lat="46.73077" lon="5.96385">
        <ele>705.6</ele>
        <time>2020-12-06T15:30:58Z</time>
      </trkpt>
      <trkpt lat="46.73073" lon="5.96381">
        <ele>704.4</ele>
        <time>2020-12-06T15:31:04Z</time>
      </trkpt>
      <trkpt lat="46.73068" lon="5.96379">
        <ele>704</ele>
        <time>2020-12-06T15:31:10Z</time>
      </trkpt>
      <trkpt lat="46.73064" lon="5.96375">
        <ele>705.5</ele>
        <time>2020-12-06T15:31:18Z</time>
      </trkpt>
      <trkpt lat="46.7306" lon="5.96373">
        <ele>706.1</ele>
        <time>2020-12-06T15:31:24Z</time>
      </trkpt>
      <trkpt lat="46.73055" lon="5.9637">
        <ele>706.2</ele>
        <time>2020-12-06T15:31:30Z</time>
      </trkpt>
      <trkpt lat="46.7305" lon="5.96368">
        <ele>706.6</ele>
        <time>2020-12-06T15:31:37Z</time>
      </trkpt>
      <trkpt lat="46.73046" lon="5.96368">
        <ele>706.7</ele>
        <time>2020-12-06T15:31:43Z</time>
      </trkpt>
      <trkpt lat="46.7304" lon="5.96368">
        <ele>706.6</ele>
        <time>2020-12-06T15:31:48Z</time>
      </trkpt>
      <trkpt lat="46.73036" lon="5.96367">
        <ele>706</ele>
        <time>2020-12-06T15:31:54Z</time>
      </trkpt>
      <trkpt lat="46.7303" lon="5.96365">
        <ele>705.3</ele>
        <time>2020-12-06T15:31:59Z</time>
      </trkpt>
      <trkpt lat="46.73024" lon="5.96364">
        <ele>704.6</ele>
        <time>2020-12-06T15:32:04Z</time>
      </trkpt>
      <trkpt lat="46.73019" lon="5.96362">
        <ele>704.2</ele>
        <time>2020-12-06T15:32:09Z</time>
      </trkpt>
      <trkpt lat="46.73014" lon="5.9636">
        <ele>704.1</ele>
        <time>2020-12-06T15:32:15Z</time>
      </trkpt>
      <trkpt lat="46.73009" lon="5.96358">
        <ele>704.1</ele>
        <time>2020-12-06T15:32:20Z</time>
      </trkpt>
      <trkpt lat="46.73004" lon="5.96357">
        <ele>704.1</ele>
        <time>2020-12-06T15:32:25Z</time>
      </trkpt>
      <trkpt lat="46.72999" lon="5.96355">
        <ele>703.6</ele>
        <time>2020-12-06T15:32:31Z</time>
      </trkpt>
      <trkpt lat="46.72994" lon="5.96352">
        <ele>702.4</ele>
        <time>2020-12-06T15:32:37Z</time>
      </trkpt>
      <trkpt lat="46.7299" lon="5.9635">
        <ele>701.1</ele>
        <time>2020-12-06T15:32:43Z</time>
      </trkpt>
      <trkpt lat="46.72985" lon="5.96349">
        <ele>699.9</ele>
        <time>2020-12-06T15:32:49Z</time>
      </trkpt>
      <trkpt lat="46.7298" lon="5.96348">
        <ele>698.8</ele>
        <time>2020-12-06T15:32:54Z</time>
      </trkpt>
      <trkpt lat="46.72976" lon="5.96345">
        <ele>697.6</ele>
        <time>2020-12-06T15:33:00Z</time>
      </trkpt>
      <trkpt lat="46.72972" lon="5.96342">
        <ele>696.7</ele>
        <time>2020-12-06T15:33:05Z</time>
      </trkpt>
      <trkpt lat="46.72967" lon="5.96338">
        <ele>695.7</ele>
        <time>2020-12-06T15:33:10Z</time>
      </trkpt>
      <trkpt lat="46.72963" lon="5.96335">
        <ele>694.7</ele>
        <time>2020-12-06T15:33:15Z</time>
      </trkpt>
      <trkpt lat="46.72959" lon="5.96332">
        <ele>694.1</ele>
        <time>2020-12-06T15:33:20Z</time>
      </trkpt>
      <trkpt lat="46.72954" lon="5.9633">
        <ele>693.9</ele>
        <time>2020-12-06T15:33:25Z</time>
      </trkpt>
      <trkpt lat="46.72949" lon="5.96328">
        <ele>694.1</ele>
        <time>2020-12-06T15:33:30Z</time>
      </trkpt>
      <trkpt lat="46.72945" lon="5.96326">
        <ele>694.3</ele>
        <time>2020-12-06T15:33:36Z</time>
      </trkpt>
      <trkpt lat="46.7294" lon="5.96325">
        <ele>694.4</ele>
        <time>2020-12-06T15:33:42Z</time>
      </trkpt>
      <trkpt lat="46.72935" lon="5.96322">
        <ele>694.1</ele>
        <time>2020-12-06T15:33:48Z</time>
      </trkpt>
      <trkpt lat="46.7293" lon="5.96319">
        <ele>693.3</ele>
        <time>2020-12-06T15:33:53Z</time>
      </trkpt>
      <trkpt lat="46.72924" lon="5.96317">
        <ele>692.7</ele>
        <time>2020-12-06T15:33:58Z</time>
      </trkpt>
      <trkpt lat="46.72919" lon="5.96313">
        <ele>692.1</ele>
        <time>2020-12-06T15:34:03Z</time>
      </trkpt>
      <trkpt lat="46.72915" lon="5.96308">
        <ele>692</ele>
        <time>2020-12-06T15:34:08Z</time>
      </trkpt>
      <trkpt lat="46.7291" lon="5.96304">
        <ele>691.7</ele>
        <time>2020-12-06T15:34:14Z</time>
      </trkpt>
      <trkpt lat="46.72906" lon="5.96299">
        <ele>691.6</ele>
        <time>2020-12-06T15:34:19Z</time>
      </trkpt>
      <trkpt lat="46.72903" lon="5.96292">
        <ele>691.3</ele>
        <time>2020-12-06T15:34:24Z</time>
      </trkpt>
      <trkpt lat="46.729" lon="5.96287">
        <ele>691.2</ele>
        <time>2020-12-06T15:34:29Z</time>
      </trkpt>
      <trkpt lat="46.72896" lon="5.96281">
        <ele>691.1</ele>
        <time>2020-12-06T15:34:34Z</time>
      </trkpt>
      <trkpt lat="46.72893" lon="5.96275">
        <ele>690.6</ele>
        <time>2020-12-06T15:34:39Z</time>
      </trkpt>
      <trkpt lat="46.7289" lon="5.9627">
        <ele>689.8</ele>
        <time>2020-12-06T15:34:44Z</time>
      </trkpt>
      <trkpt lat="46.72887" lon="5.96265">
        <ele>689.3</ele>
        <time>2020-12-06T15:34:49Z</time>
      </trkpt>
      <trkpt lat="46.72883" lon="5.9626">
        <ele>689</ele>
        <time>2020-12-06T15:34:54Z</time>
      </trkpt>
      <trkpt lat="46.72879" lon="5.96256">
        <ele>688.9</ele>
        <time>2020-12-06T15:34:59Z</time>
      </trkpt>
      <trkpt lat="46.72876" lon="5.96251">
        <ele>688.9</ele>
        <time>2020-12-06T15:35:04Z</time>
      </trkpt>
      <trkpt lat="46.72872" lon="5.96246">
        <ele>688.8</ele>
        <time>2020-12-06T15:35:09Z</time>
      </trkpt>
      <trkpt lat="46.72869" lon="5.96241">
        <ele>688.8</ele>
        <time>2020-12-06T15:35:14Z</time>
      </trkpt>
      <trkpt lat="46.72866" lon="5.96235">
        <ele>688.5</ele>
        <time>2020-12-06T15:35:20Z</time>
      </trkpt>
      <trkpt lat="46.72864" lon="5.96228">
        <ele>688.2</ele>
        <time>2020-12-06T15:35:26Z</time>
      </trkpt>
      <trkpt lat="46.72859" lon="5.96226">
        <ele>687.6</ele>
        <time>2020-12-06T15:35:39Z</time>
      </trkpt>
      <trkpt lat="46.72856" lon="5.96221">
        <ele>686.5</ele>
        <time>2020-12-06T15:35:45Z</time>
      </trkpt>
      <trkpt lat="46.72852" lon="5.96216">
        <ele>685.1</ele>
        <time>2020-12-06T15:35:50Z</time>
      </trkpt>
      <trkpt lat="46.72847" lon="5.96212">
        <ele>684.3</ele>
        <time>2020-12-06T15:35:55Z</time>
      </trkpt>
      <trkpt lat="46.72843" lon="5.96206">
        <ele>683.6</ele>
        <time>2020-12-06T15:36:00Z</time>
      </trkpt>
      <trkpt lat="46.72839" lon="5.96202">
        <ele>682.9</ele>
        <time>2020-12-06T15:36:05Z</time>
      </trkpt>
      <trkpt lat="46.72835" lon="5.96198">
        <ele>681.8</ele>
        <time>2020-12-06T15:36:12Z</time>
      </trkpt>
      <trkpt lat="46.72831" lon="5.96194">
        <ele>681.3</ele>
        <time>2020-12-06T15:36:18Z</time>
      </trkpt>
      <trkpt lat="46.72827" lon="5.9619">
        <ele>680.8</ele>
        <time>2020-12-06T15:36:23Z</time>
      </trkpt>
      <trkpt lat="46.72823" lon="5.96187">
        <ele>680.4</ele>
        <time>2020-12-06T15:36:28Z</time>
      </trkpt>
      <trkpt lat="46.72818" lon="5.96184">
        <ele>679.7</ele>
        <time>2020-12-06T15:36:33Z</time>
      </trkpt>
      <trkpt lat="46.72814" lon="5.96179">
        <ele>678.9</ele>
        <time>2020-12-06T15:36:39Z</time>
      </trkpt>
      <trkpt lat="46.7281" lon="5.96176">
        <ele>678.1</ele>
        <time>2020-12-06T15:36:44Z</time>
      </trkpt>
      <trkpt lat="46.72806" lon="5.96172">
        <ele>677.4</ele>
        <time>2020-12-06T15:36:49Z</time>
      </trkpt>
      <trkpt lat="46.72803" lon="5.96167">
        <ele>676.7</ele>
        <time>2020-12-06T15:36:54Z</time>
      </trkpt>
      <trkpt lat="46.728" lon="5.96161">
        <ele>676.3</ele>
        <time>2020-12-06T15:36:59Z</time>
      </trkpt>
      <trkpt lat="46.72796" lon="5.96155">
        <ele>676</ele>
        <time>2020-12-06T15:37:04Z</time>
      </trkpt>
      <trkpt lat="46.72793" lon="5.9615">
        <ele>675.9</ele>
        <time>2020-12-06T15:37:09Z</time>
      </trkpt>
      <trkpt lat="46.72789" lon="5.96145">
        <ele>675.5</ele>
        <time>2020-12-06T15:37:14Z</time>
      </trkpt>
      <trkpt lat="46.72785" lon="5.96141">
        <ele>675</ele>
        <time>2020-12-06T15:37:19Z</time>
      </trkpt>
      <trkpt lat="46.7278" lon="5.96136">
        <ele>674.6</ele>
        <time>2020-12-06T15:37:24Z</time>
      </trkpt>
      <trkpt lat="46.72776" lon="5.96132">
        <ele>674.2</ele>
        <time>2020-12-06T15:37:29Z</time>
      </trkpt>
      <trkpt lat="46.72771" lon="5.96129">
        <ele>674.1</ele>
        <time>2020-12-06T15:37:35Z</time>
      </trkpt>
      <trkpt lat="46.72766" lon="5.96127">
        <ele>674.2</ele>
        <time>2020-12-06T15:37:40Z</time>
      </trkpt>
      <trkpt lat="46.72762" lon="5.96125">
        <ele>674.3</ele>
        <time>2020-12-06T15:37:47Z</time>
      </trkpt>
      <trkpt lat="46.72758" lon="5.96121">
        <ele>674.4</ele>
        <time>2020-12-06T15:38:01Z</time>
      </trkpt>
      <trkpt lat="46.72753" lon="5.96119">
        <ele>674.3</ele>
        <time>2020-12-06T15:38:07Z</time>
      </trkpt>
      <trkpt lat="46.72748" lon="5.96116">
        <ele>673.9</ele>
        <time>2020-12-06T15:38:12Z</time>
      </trkpt>
      <trkpt lat="46.72744" lon="5.96112">
        <ele>673.2</ele>
        <time>2020-12-06T15:38:18Z</time>
      </trkpt>
      <trkpt lat="46.72741" lon="5.96108">
        <ele>672.1</ele>
        <time>2020-12-06T15:38:24Z</time>
      </trkpt>
      <trkpt lat="46.72737" lon="5.96103">
        <ele>671.3</ele>
        <time>2020-12-06T15:38:29Z</time>
      </trkpt>
      <trkpt lat="46.72733" lon="5.96099">
        <ele>670.5</ele>
        <time>2020-12-06T15:38:34Z</time>
      </trkpt>
      <trkpt lat="46.72729" lon="5.96094">
        <ele>669.4</ele>
        <time>2020-12-06T15:38:40Z</time>
      </trkpt>
      <trkpt lat="46.72726" lon="5.96089">
        <ele>668.2</ele>
        <time>2020-12-06T15:38:45Z</time>
      </trkpt>
      <trkpt lat="46.72722" lon="5.96086">
        <ele>667.1</ele>
        <time>2020-12-06T15:38:50Z</time>
      </trkpt>
      <trkpt lat="46.72717" lon="5.96085">
        <ele>666.2</ele>
        <time>2020-12-06T15:38:55Z</time>
      </trkpt>
      <trkpt lat="46.72713" lon="5.96083">
        <ele>665.5</ele>
        <time>2020-12-06T15:39:01Z</time>
      </trkpt>
      <trkpt lat="46.72708" lon="5.96082">
        <ele>664.4</ele>
        <time>2020-12-06T15:39:08Z</time>
      </trkpt>
      <trkpt lat="46.72703" lon="5.96083">
        <ele>662.9</ele>
        <time>2020-12-06T15:39:17Z</time>
      </trkpt>
      <trkpt lat="46.72699" lon="5.96085">
        <ele>661.7</ele>
        <time>2020-12-06T15:39:26Z</time>
      </trkpt>
      <trkpt lat="46.72694" lon="5.96085">
        <ele>660.3</ele>
        <time>2020-12-06T15:39:34Z</time>
      </trkpt>
      <trkpt lat="46.72689" lon="5.96086">
        <ele>659.1</ele>
        <time>2020-12-06T15:39:41Z</time>
      </trkpt>
      <trkpt lat="46.72684" lon="5.96085">
        <ele>657.6</ele>
        <time>2020-12-06T15:39:49Z</time>
      </trkpt>
      <trkpt lat="46.7268" lon="5.96083">
        <ele>656.5</ele>
        <time>2020-12-06T15:39:56Z</time>
      </trkpt>
      <trkpt lat="46.72675" lon="5.96082">
        <ele>655.1</ele>
        <time>2020-12-06T15:40:02Z</time>
      </trkpt>
      <trkpt lat="46.72671" lon="5.96079">
        <ele>653.5</ele>
        <time>2020-12-06T15:40:09Z</time>
      </trkpt>
      <trkpt lat="46.72666" lon="5.96078">
        <ele>652.4</ele>
        <time>2020-12-06T15:40:15Z</time>
      </trkpt>
      <trkpt lat="46.72661" lon="5.96076">
        <ele>651.3</ele>
        <time>2020-12-06T15:40:21Z</time>
      </trkpt>
      <trkpt lat="46.72656" lon="5.96073">
        <ele>649.9</ele>
        <time>2020-12-06T15:40:28Z</time>
      </trkpt>
      <trkpt lat="46.72652" lon="5.96071">
        <ele>649.1</ele>
        <time>2020-12-06T15:40:34Z</time>
      </trkpt>
      <trkpt lat="46.72647" lon="5.96067">
        <ele>648.5</ele>
        <time>2020-12-06T15:40:40Z</time>
      </trkpt>
      <trkpt lat="46.72643" lon="5.96064">
        <ele>647.8</ele>
        <time>2020-12-06T15:40:46Z</time>
      </trkpt>
      <trkpt lat="46.72638" lon="5.96061">
        <ele>646.5</ele>
        <time>2020-12-06T15:40:52Z</time>
      </trkpt>
      <trkpt lat="46.72633" lon="5.96059">
        <ele>644.9</ele>
        <time>2020-12-06T15:40:58Z</time>
      </trkpt>
      <trkpt lat="46.72628" lon="5.96056">
        <ele>643.7</ele>
        <time>2020-12-06T15:41:04Z</time>
      </trkpt>
      <trkpt lat="46.72623" lon="5.96055">
        <ele>642.8</ele>
        <time>2020-12-06T15:41:10Z</time>
      </trkpt>
      <trkpt lat="46.72618" lon="5.96051">
        <ele>641.9</ele>
        <time>2020-12-06T15:41:16Z</time>
      </trkpt>
      <trkpt lat="46.72613" lon="5.9605">
        <ele>640.9</ele>
        <time>2020-12-06T15:41:22Z</time>
      </trkpt>
      <trkpt lat="46.72608" lon="5.96049">
        <ele>640</ele>
        <time>2020-12-06T15:41:27Z</time>
      </trkpt>
      <trkpt lat="46.72603" lon="5.96046">
        <ele>638.3</ele>
        <time>2020-12-06T15:41:33Z</time>
      </trkpt>
      <trkpt lat="46.72598" lon="5.96042">
        <ele>636.7</ele>
        <time>2020-12-06T15:41:39Z</time>
      </trkpt>
      <trkpt lat="46.72594" lon="5.9604">
        <ele>635.3</ele>
        <time>2020-12-06T15:41:45Z</time>
      </trkpt>
      <trkpt lat="46.72589" lon="5.96037">
        <ele>634</ele>
        <time>2020-12-06T15:41:51Z</time>
      </trkpt>
      <trkpt lat="46.72585" lon="5.96035">
        <ele>632.8</ele>
        <time>2020-12-06T15:41:57Z</time>
      </trkpt>
      <trkpt lat="46.7258" lon="5.96034">
        <ele>631.8</ele>
        <time>2020-12-06T15:42:04Z</time>
      </trkpt>
      <trkpt lat="46.72575" lon="5.96033">
        <ele>630.7</ele>
        <time>2020-12-06T15:42:10Z</time>
      </trkpt>
      <trkpt lat="46.7257" lon="5.96033">
        <ele>629.7</ele>
        <time>2020-12-06T15:42:16Z</time>
      </trkpt>
      <trkpt lat="46.72566" lon="5.96034">
        <ele>629.8</ele>
        <time>2020-12-06T15:42:37Z</time>
      </trkpt>
      <trkpt lat="46.72561" lon="5.96034">
        <ele>630</ele>
        <time>2020-12-06T15:42:45Z</time>
      </trkpt>
      <trkpt lat="46.72556" lon="5.96035">
        <ele>630</ele>
        <time>2020-12-06T15:42:51Z</time>
      </trkpt>
      <trkpt lat="46.72551" lon="5.96033">
        <ele>629.8</ele>
        <time>2020-12-06T15:42:59Z</time>
      </trkpt>
      <trkpt lat="46.72552" lon="5.96026">
        <ele>629.6</ele>
        <time>2020-12-06T15:43:05Z</time>
      </trkpt>
      <trkpt lat="46.72553" lon="5.9602">
        <ele>629.4</ele>
        <time>2020-12-06T15:43:10Z</time>
      </trkpt>
      <trkpt lat="46.72555" lon="5.96012">
        <ele>628.9</ele>
        <time>2020-12-06T15:43:17Z</time>
      </trkpt>
      <trkpt lat="46.72558" lon="5.96007">
        <ele>626.6</ele>
        <time>2020-12-06T15:44:12Z</time>
      </trkpt>
      <trkpt lat="46.72563" lon="5.96007">
        <ele>629</ele>
        <time>2020-12-06T15:44:19Z</time>
      </trkpt>
      <trkpt lat="46.72569" lon="5.96007">
        <ele>629</ele>
        <time>2020-12-06T15:44:24Z</time>
      </trkpt>
      <trkpt lat="46.72575" lon="5.96002">
        <ele>628.5</ele>
        <time>2020-12-06T15:44:29Z</time>
      </trkpt>
      <trkpt lat="46.7258" lon="5.95997">
        <ele>628.7</ele>
        <time>2020-12-06T15:44:34Z</time>
      </trkpt>
      <trkpt lat="46.72583" lon="5.95993">
        <ele>629.6</ele>
        <time>2020-12-06T15:44:39Z</time>
      </trkpt>
      <trkpt lat="46.72588" lon="5.9599">
        <ele>631.1</ele>
        <time>2020-12-06T15:44:48Z</time>
      </trkpt>
      <trkpt lat="46.72593" lon="5.95991">
        <ele>631.2</ele>
        <time>2020-12-06T15:44:56Z</time>
      </trkpt>
      <trkpt lat="46.72599" lon="5.95992">
        <ele>630.8</ele>
        <time>2020-12-06T15:45:03Z</time>
      </trkpt>
      <trkpt lat="46.72605" lon="5.95993">
        <ele>630.2</ele>
        <time>2020-12-06T15:45:08Z</time>
      </trkpt>
      <trkpt lat="46.72611" lon="5.95989">
        <ele>627.8</ele>
        <time>2020-12-06T15:45:17Z</time>
      </trkpt>
      <trkpt lat="46.72616" lon="5.95987">
        <ele>626.2</ele>
        <time>2020-12-06T15:45:22Z</time>
      </trkpt>
      <trkpt lat="46.72621" lon="5.95985">
        <ele>624.7</ele>
        <time>2020-12-06T15:45:27Z</time>
      </trkpt>
      <trkpt lat="46.72625" lon="5.95984">
        <ele>622.8</ele>
        <time>2020-12-06T15:45:33Z</time>
      </trkpt>
      <trkpt lat="46.7263" lon="5.95982">
        <ele>621.8</ele>
        <time>2020-12-06T15:45:41Z</time>
      </trkpt>
      <trkpt lat="46.72635" lon="5.95981">
        <ele>620.5</ele>
        <time>2020-12-06T15:45:49Z</time>
      </trkpt>
      <trkpt lat="46.7264" lon="5.95981">
        <ele>619.5</ele>
        <time>2020-12-06T15:45:55Z</time>
      </trkpt>
      <trkpt lat="46.72645" lon="5.95981">
        <ele>618.3</ele>
        <time>2020-12-06T15:46:00Z</time>
      </trkpt>
      <trkpt lat="46.7265" lon="5.95983">
        <ele>615.9</ele>
        <time>2020-12-06T15:46:06Z</time>
      </trkpt>
      <trkpt lat="46.72655" lon="5.95983">
        <ele>613.7</ele>
        <time>2020-12-06T15:46:12Z</time>
      </trkpt>
      <trkpt lat="46.7266" lon="5.95985">
        <ele>611.9</ele>
        <time>2020-12-06T15:46:18Z</time>
      </trkpt>
      <trkpt lat="46.72664" lon="5.95986">
        <ele>609</ele>
        <time>2020-12-06T15:46:25Z</time>
      </trkpt>
      <trkpt lat="46.72669" lon="5.95987">
        <ele>606.3</ele>
        <time>2020-12-06T15:46:31Z</time>
      </trkpt>
      <trkpt lat="46.72674" lon="5.95989">
        <ele>603.6</ele>
        <time>2020-12-06T15:46:37Z</time>
      </trkpt>
      <trkpt lat="46.72679" lon="5.9599">
        <ele>601.7</ele>
        <time>2020-12-06T15:46:42Z</time>
      </trkpt>
      <trkpt lat="46.72684" lon="5.95988">
        <ele>599.8</ele>
        <time>2020-12-06T15:46:48Z</time>
      </trkpt>
      <trkpt lat="46.72688" lon="5.95984">
        <ele>598.3</ele>
        <time>2020-12-06T15:46:54Z</time>
      </trkpt>
      <trkpt lat="46.72693" lon="5.95984">
        <ele>596.4</ele>
        <time>2020-12-06T15:47:09Z</time>
      </trkpt>
      <trkpt lat="46.72698" lon="5.95982">
        <ele>596.2</ele>
        <time>2020-12-06T15:47:15Z</time>
      </trkpt>
      <trkpt lat="46.72703" lon="5.95982">
        <ele>595.7</ele>
        <time>2020-12-06T15:47:24Z</time>
      </trkpt>
      <trkpt lat="46.72707" lon="5.95982">
        <ele>595</ele>
        <time>2020-12-06T15:47:32Z</time>
      </trkpt>
      <trkpt lat="46.72712" lon="5.9598">
        <ele>594.3</ele>
        <time>2020-12-06T15:47:38Z</time>
      </trkpt>
      <trkpt lat="46.72717" lon="5.95977">
        <ele>593.5</ele>
        <time>2020-12-06T15:47:44Z</time>
      </trkpt>
      <trkpt lat="46.72722" lon="5.95977">
        <ele>592</ele>
        <time>2020-12-06T15:47:50Z</time>
      </trkpt>
      <trkpt lat="46.72727" lon="5.9598">
        <ele>589.9</ele>
        <time>2020-12-06T15:47:56Z</time>
      </trkpt>
      <trkpt lat="46.72733" lon="5.95983">
        <ele>588.3</ele>
        <time>2020-12-06T15:48:01Z</time>
      </trkpt>
      <trkpt lat="46.72737" lon="5.95986">
        <ele>586.9</ele>
        <time>2020-12-06T15:48:06Z</time>
      </trkpt>
      <trkpt lat="46.72742" lon="5.95988">
        <ele>585.4</ele>
        <time>2020-12-06T15:48:11Z</time>
      </trkpt>
      <trkpt lat="46.72746" lon="5.95991">
        <ele>583.8</ele>
        <time>2020-12-06T15:48:16Z</time>
      </trkpt>
      <trkpt lat="46.7275" lon="5.95993">
        <ele>582</ele>
        <time>2020-12-06T15:48:22Z</time>
      </trkpt>
      <trkpt lat="46.72755" lon="5.95993">
        <ele>581.4</ele>
        <time>2020-12-06T15:48:28Z</time>
      </trkpt>
      <trkpt lat="46.72759" lon="5.95996">
        <ele>581.2</ele>
        <time>2020-12-06T15:48:33Z</time>
      </trkpt>
      <trkpt lat="46.72764" lon="5.95998">
        <ele>580.6</ele>
        <time>2020-12-06T15:48:39Z</time>
      </trkpt>
      <trkpt lat="46.7277" lon="5.95996">
        <ele>580.5</ele>
        <time>2020-12-06T15:48:44Z</time>
      </trkpt>
      <trkpt lat="46.72777" lon="5.95994">
        <ele>580.9</ele>
        <time>2020-12-06T15:48:49Z</time>
      </trkpt>
      <trkpt lat="46.72783" lon="5.95991">
        <ele>581.1</ele>
        <time>2020-12-06T15:48:54Z</time>
      </trkpt>
      <trkpt lat="46.72788" lon="5.95993">
        <ele>581.6</ele>
        <time>2020-12-06T15:48:59Z</time>
      </trkpt>
      <trkpt lat="46.72793" lon="5.95995">
        <ele>582.7</ele>
        <time>2020-12-06T15:49:04Z</time>
      </trkpt>
      <trkpt lat="46.72798" lon="5.95996">
        <ele>583.3</ele>
        <time>2020-12-06T15:49:09Z</time>
      </trkpt>
      <trkpt lat="46.72804" lon="5.95996">
        <ele>583.4</ele>
        <time>2020-12-06T15:49:14Z</time>
      </trkpt>
      <trkpt lat="46.72809" lon="5.95996">
        <ele>583</ele>
        <time>2020-12-06T15:49:20Z</time>
      </trkpt>
      <trkpt lat="46.72814" lon="5.96">
        <ele>582.1</ele>
        <time>2020-12-06T15:49:25Z</time>
      </trkpt>
      <trkpt lat="46.72818" lon="5.96003">
        <ele>581.5</ele>
        <time>2020-12-06T15:49:30Z</time>
      </trkpt>
      <trkpt lat="46.72823" lon="5.96006">
        <ele>580.5</ele>
        <time>2020-12-06T15:49:35Z</time>
      </trkpt>
      <trkpt lat="46.72827" lon="5.96012">
        <ele>579.4</ele>
        <time>2020-12-06T15:49:40Z</time>
      </trkpt>
      <trkpt lat="46.72831" lon="5.96016">
        <ele>578.6</ele>
        <time>2020-12-06T15:49:46Z</time>
      </trkpt>
    </trkseg>
  </trk>
</gpx>